<?xml version='1.0' encoding='UTF-8'?><gpx version="1.1" creator="JPX - https://github.com/jenetics/jpx" xmlns="http://www.topografix.com/GPX/1/1"><trk><trkseg><trkpt lat="38.1432624" lon="13.3417571"><ele>41.0</ele><time>2026-04-19T07:47:32.716Z</time></trkpt><trkpt lat="38.1433182" lon="13.3418474"><ele>41.0</ele><time>2026-04-19T07:47:37.716Z</time></trkpt><trkpt lat="38.1433548" lon="13.3419345"><ele>41.0</ele><time>2026-04-19T07:47:41.716Z</time></trkpt><trkpt lat="38.1433854" lon="13.342018"><ele>41.0</ele><time>2026-04-19T07:47:44.717Z</time></trkpt><trkpt lat="38.1434198" lon="13.342096"><ele>41.0</ele><time>2026-04-19T07:47:47.716Z</time></trkpt><trkpt lat="38.1434472" lon="13.3421963"><ele>41.0</ele><time>2026-04-19T07:47:50.716Z</time></trkpt><trkpt lat="38.1434877" lon="13.3422866"><ele>40.57142857142857</ele><time>2026-04-19T07:47:53.717Z</time></trkpt><trkpt lat="38.1435252" lon="13.3423746"><ele>40.14285714285714</ele><time>2026-04-19T07:47:56.716Z</time></trkpt><trkpt lat="38.1435597" lon="13.3424607"><ele>39.71428571428571</ele><time>2026-04-19T07:47:59.716Z</time></trkpt><trkpt lat="38.1435791" lon="13.3425578"><ele>39.285714285714285</ele><time>2026-04-19T07:48:02.717Z</time></trkpt><trkpt lat="38.1436026" lon="13.3426456"><ele>38.85714285714286</ele><time>2026-04-19T07:48:05.716Z</time></trkpt><trkpt lat="38.1436322" lon="13.3427215"><ele>38.42857142857142</ele><time>2026-04-19T07:48:08.716Z</time></trkpt><trkpt lat="38.1436612" lon="13.3427982"><ele>38.0</ele><time>2026-04-19T07:48:12.716Z</time></trkpt><trkpt lat="38.1436789" lon="13.3428842"><ele>38.0</ele><time>2026-04-19T07:48:14.716Z</time></trkpt><trkpt lat="38.1437204" lon="13.3429745"><ele>38.0</ele><time>2026-04-19T07:48:18.716Z</time></trkpt><trkpt lat="38.1437476" lon="13.3430579"><ele>38.0</ele><time>2026-04-19T07:48:21.716Z</time></trkpt><trkpt lat="38.1437861" lon="13.3431446"><ele>38.0</ele><time>2026-04-19T07:48:26.717Z</time></trkpt><trkpt lat="38.1438539" lon="13.3431258"><ele>38.0</ele><time>2026-04-19T07:48:29.717Z</time></trkpt><trkpt lat="38.1439184" lon="13.3431123"><ele>38.0</ele><time>2026-04-19T07:48:40.717Z</time></trkpt><trkpt lat="38.14398" lon="13.343073"><ele>38.0</ele><time>2026-04-19T07:48:43.717Z</time></trkpt><trkpt lat="38.1440535" lon="13.3430217"><ele>38.42857142857142</ele><time>2026-04-19T07:48:46.716Z</time></trkpt><trkpt lat="38.1441182" lon="13.3429851"><ele>38.85714285714286</ele><time>2026-04-19T07:48:50.717Z</time></trkpt><trkpt lat="38.1441978" lon="13.3429514"><ele>39.285714285714285</ele><time>2026-04-19T07:48:54.717Z</time></trkpt><trkpt lat="38.144261" lon="13.3429091"><ele>39.71428571428571</ele><time>2026-04-19T07:48:58.717Z</time></trkpt><trkpt lat="38.1443143" lon="13.3428438"><ele>40.14285714285714</ele><time>2026-04-19T07:49:02.716Z</time></trkpt><trkpt lat="38.1443872" lon="13.3428206"><ele>40.57142857142857</ele><time>2026-04-19T07:49:05.716Z</time></trkpt><trkpt lat="38.1444432" lon="13.3427829"><ele>41.0</ele><time>2026-04-19T07:49:07.717Z</time></trkpt><trkpt lat="38.1445024" lon="13.3427415"><ele>41.0</ele><time>2026-04-19T07:49:09.716Z</time></trkpt><trkpt lat="38.1445797" lon="13.3427016"><ele>41.0</ele><time>2026-04-19T07:49:12.717Z</time></trkpt><trkpt lat="38.1446486" lon="13.3426433"><ele>41.0</ele><time>2026-04-19T07:49:15.717Z</time></trkpt><trkpt lat="38.1447274" lon="13.3426005"><ele>41.0</ele><time>2026-04-19T07:49:18.716Z</time></trkpt><trkpt lat="38.1447894" lon="13.3425658"><ele>41.0</ele><time>2026-04-19T07:49:20.716Z</time></trkpt><trkpt lat="38.1448729" lon="13.3425308"><ele>41.0</ele><time>2026-04-19T07:49:23.716Z</time></trkpt><trkpt lat="38.1449558" lon="13.3425013"><ele>40.99999999999999</ele><time>2026-04-19T07:49:26.717Z</time></trkpt><trkpt lat="38.1450229" lon="13.3424616"><ele>41.0</ele><time>2026-04-19T07:49:29.716Z</time></trkpt><trkpt lat="38.145079" lon="13.3424151"><ele>41.0</ele><time>2026-04-19T07:49:32.717Z</time></trkpt><trkpt lat="38.1451383" lon="13.3423654"><ele>41.0</ele><time>2026-04-19T07:49:35.717Z</time></trkpt><trkpt lat="38.1452022" lon="13.3424008"><ele>41.0</ele><time>2026-04-19T07:49:44.716Z</time></trkpt><trkpt lat="38.1452614" lon="13.342429"><ele>40.99999999999999</ele><time>2026-04-19T07:49:47.717Z</time></trkpt><trkpt lat="38.1453445" lon="13.3424648"><ele>41.0</ele><time>2026-04-19T07:49:50.716Z</time></trkpt><trkpt lat="38.1453959" lon="13.342531"><ele>40.99999999999999</ele><time>2026-04-19T07:49:52.717Z</time></trkpt><trkpt lat="38.1454519" lon="13.342585"><ele>41.0</ele><time>2026-04-19T07:49:54.716Z</time></trkpt><trkpt lat="38.1455156" lon="13.3426257"><ele>41.0</ele><time>2026-04-19T07:49:56.716Z</time></trkpt><trkpt lat="38.1455745" lon="13.3426591"><ele>41.0</ele><time>2026-04-19T07:49:58.717Z</time></trkpt><trkpt lat="38.1456397" lon="13.3426555"><ele>41.0</ele><time>2026-04-19T07:50:00.717Z</time></trkpt><trkpt lat="38.1457029" lon="13.3426449"><ele>40.99999999999999</ele><time>2026-04-19T07:50:02.716Z</time></trkpt><trkpt lat="38.1457957" lon="13.3426223"><ele>41.0</ele><time>2026-04-19T07:50:05.717Z</time></trkpt><trkpt lat="38.1458895" lon="13.3426501"><ele>41.83333333333333</ele><time>2026-04-19T07:50:08.717Z</time></trkpt><trkpt lat="38.1459459" lon="13.3427182"><ele>42.666666666666664</ele><time>2026-04-19T07:50:10.716Z</time></trkpt><trkpt lat="38.1459909" lon="13.3428114"><ele>43.5</ele><time>2026-04-19T07:50:12.717Z</time></trkpt><trkpt lat="38.1460309" lon="13.3428927"><ele>44.333333333333336</ele><time>2026-04-19T07:50:14.717Z</time></trkpt><trkpt lat="38.1460827" lon="13.3429697"><ele>45.16666666666667</ele><time>2026-04-19T07:50:16.716Z</time></trkpt><trkpt lat="38.1461275" lon="13.3430471"><ele>46.0</ele><time>2026-04-19T07:50:18.716Z</time></trkpt><trkpt lat="38.1461824" lon="13.343132"><ele>46.0</ele><time>2026-04-19T07:50:20.716Z</time></trkpt><trkpt lat="38.1462485" lon="13.3432105"><ele>46.0</ele><time>2026-04-19T07:50:22.717Z</time></trkpt><trkpt lat="38.1463383" lon="13.3432755"><ele>46.0</ele><time>2026-04-19T07:50:24.716Z</time></trkpt><trkpt lat="38.1464109" lon="13.3433299"><ele>46.0</ele><time>2026-04-19T07:50:26.716Z</time></trkpt><trkpt lat="38.1464645" lon="13.3434061"><ele>46.0</ele><time>2026-04-19T07:50:28.717Z</time></trkpt><trkpt lat="38.1465175" lon="13.3435039"><ele>46.0</ele><time>2026-04-19T07:50:30.716Z</time></trkpt><trkpt lat="38.1465406" lon="13.3435866"><ele>46.0</ele><time>2026-04-19T07:50:32.717Z</time></trkpt><trkpt lat="38.1465819" lon="13.3436546"><ele>46.0</ele><time>2026-04-19T07:50:34.716Z</time></trkpt><trkpt lat="38.1466559" lon="13.3437327"><ele>46.0</ele><time>2026-04-19T07:50:37.717Z</time></trkpt><trkpt lat="38.1467204" lon="13.3437942"><ele>46.0</ele><time>2026-04-19T07:50:40.716Z</time></trkpt><trkpt lat="38.1467775" lon="13.3438398"><ele>46.0</ele><time>2026-04-19T07:51:27.716Z</time></trkpt><trkpt lat="38.1468444" lon="13.3439164"><ele>44.5</ele><time>2026-04-19T07:51:29.716Z</time></trkpt><trkpt lat="38.1469091" lon="13.3439392"><ele>43.0</ele><time>2026-04-19T07:51:31.716Z</time></trkpt><trkpt lat="38.1469826" lon="13.3439611"><ele>41.5</ele><time>2026-04-19T07:51:33.716Z</time></trkpt><trkpt lat="38.1470475" lon="13.3439474"><ele>40.0</ele><time>2026-04-19T07:51:35.717Z</time></trkpt><trkpt lat="38.1471237" lon="13.3439235"><ele>38.5</ele><time>2026-04-19T07:52:10.717Z</time></trkpt><trkpt lat="38.1472069" lon="13.3439056"><ele>37.0</ele><time>2026-04-19T07:52:13.717Z</time></trkpt><trkpt lat="38.1472841" lon="13.3438822"><ele>37.0</ele><time>2026-04-19T07:52:16.716Z</time></trkpt><trkpt lat="38.1473495" lon="13.3438457"><ele>37.0</ele><time>2026-04-19T07:52:18.717Z</time></trkpt><trkpt lat="38.1474162" lon="13.3438098"><ele>37.0</ele><time>2026-04-19T07:52:20.717Z</time></trkpt><trkpt lat="38.1474808" lon="13.3437841"><ele>37.0</ele><time>2026-04-19T07:52:22.716Z</time></trkpt><trkpt lat="38.1475442" lon="13.3437632"><ele>37.0</ele><time>2026-04-19T07:52:24.716Z</time></trkpt><trkpt lat="38.1476036" lon="13.3437365"><ele>37.0</ele><time>2026-04-19T07:52:26.717Z</time></trkpt><trkpt lat="38.1476709" lon="13.3437106"><ele>37.0</ele><time>2026-04-19T07:52:28.717Z</time></trkpt><trkpt lat="38.1477315" lon="13.3436848"><ele>37.333333333333336</ele><time>2026-04-19T07:52:30.717Z</time></trkpt><trkpt lat="38.1477912" lon="13.3436557"><ele>37.66666666666667</ele><time>2026-04-19T07:52:32.716Z</time></trkpt><trkpt lat="38.1478499" lon="13.3436243"><ele>38.0</ele><time>2026-04-19T07:52:34.716Z</time></trkpt><trkpt lat="38.1479315" lon="13.3435691"><ele>38.333333333333336</ele><time>2026-04-19T07:52:37.717Z</time></trkpt><trkpt lat="38.1479973" lon="13.3435445"><ele>38.666666666666664</ele><time>2026-04-19T07:52:39.716Z</time></trkpt><trkpt lat="38.1480735" lon="13.3434993"><ele>39.0</ele><time>2026-04-19T07:52:42.717Z</time></trkpt><trkpt lat="38.1481614" lon="13.3434669"><ele>38.714285714285715</ele><time>2026-04-19T07:52:45.716Z</time></trkpt><trkpt lat="38.1482183" lon="13.3434247"><ele>38.42857142857142</ele><time>2026-04-19T07:52:47.716Z</time></trkpt><trkpt lat="38.1482763" lon="13.3433852"><ele>38.14285714285714</ele><time>2026-04-19T07:52:49.717Z</time></trkpt><trkpt lat="38.148335" lon="13.3433335"><ele>37.85714285714286</ele><time>2026-04-19T07:52:51.717Z</time></trkpt><trkpt lat="38.1484154" lon="13.3432877"><ele>37.57142857142857</ele><time>2026-04-19T07:52:54.717Z</time></trkpt><trkpt lat="38.1484846" lon="13.3432631"><ele>37.285714285714285</ele><time>2026-04-19T07:52:57.717Z</time></trkpt><trkpt lat="38.1485541" lon="13.3432201"><ele>37.0</ele><time>2026-04-19T07:53:00.717Z</time></trkpt><trkpt lat="38.1486062" lon="13.3431656"><ele>37.0</ele><time>2026-04-19T07:53:06.716Z</time></trkpt><trkpt lat="38.1486308" lon="13.3430893"><ele>37.0</ele><time>2026-04-19T07:53:11.717Z</time></trkpt><trkpt lat="38.148644" lon="13.3429947"><ele>37.0</ele><time>2026-04-19T07:53:29.717Z</time></trkpt><trkpt lat="38.1486601" lon="13.3431175"><ele>37.0</ele><time>2026-04-19T07:56:05.716Z</time></trkpt><trkpt lat="38.1487348" lon="13.3431154"><ele>37.0</ele><time>2026-04-19T07:56:10.717Z</time></trkpt><trkpt lat="38.1487911" lon="13.3430763"><ele>37.0</ele><time>2026-04-19T07:56:12.716Z</time></trkpt><trkpt lat="38.1488515" lon="13.3430516"><ele>37.0</ele><time>2026-04-19T07:56:14.716Z</time></trkpt><trkpt lat="38.1489352" lon="13.3430211"><ele>37.16666666666667</ele><time>2026-04-19T07:56:17.716Z</time></trkpt><trkpt lat="38.1490088" lon="13.3429833"><ele>37.333333333333336</ele><time>2026-04-19T07:56:20.717Z</time></trkpt><trkpt lat="38.149076" lon="13.3429389"><ele>37.5</ele><time>2026-04-19T07:56:23.716Z</time></trkpt><trkpt lat="38.149153" lon="13.3428813"><ele>37.666666666666664</ele><time>2026-04-19T07:56:26.717Z</time></trkpt><trkpt lat="38.1492249" lon="13.342847"><ele>37.83333333333333</ele><time>2026-04-19T07:56:29.716Z</time></trkpt><trkpt lat="38.1493091" lon="13.342817"><ele>38.0</ele><time>2026-04-19T07:56:32.716Z</time></trkpt><trkpt lat="38.1493874" lon="13.3427742"><ele>38.0</ele><time>2026-04-19T07:56:35.717Z</time></trkpt><trkpt lat="38.1494477" lon="13.3427473"><ele>38.0</ele><time>2026-04-19T07:56:37.716Z</time></trkpt><trkpt lat="38.1495103" lon="13.3427153"><ele>38.0</ele><time>2026-04-19T07:56:39.717Z</time></trkpt><trkpt lat="38.1495745" lon="13.3426824"><ele>38.0</ele><time>2026-04-19T07:56:41.716Z</time></trkpt><trkpt lat="38.1496358" lon="13.3426492"><ele>38.0</ele><time>2026-04-19T07:56:43.717Z</time></trkpt><trkpt lat="38.1496937" lon="13.3426173"><ele>38.0</ele><time>2026-04-19T07:56:45.717Z</time></trkpt><trkpt lat="38.1497542" lon="13.3425725"><ele>38.0</ele><time>2026-04-19T07:56:47.717Z</time></trkpt><trkpt lat="38.1498157" lon="13.3425254"><ele>37.666666666666664</ele><time>2026-04-19T07:56:49.717Z</time></trkpt><trkpt lat="38.1498812" lon="13.3424903"><ele>37.33333333333333</ele><time>2026-04-19T07:56:51.717Z</time></trkpt><trkpt lat="38.1499445" lon="13.3424662"><ele>37.0</ele><time>2026-04-19T07:56:53.716Z</time></trkpt><trkpt lat="38.1500304" lon="13.3424371"><ele>36.666666666666664</ele><time>2026-04-19T07:56:56.715Z</time></trkpt><trkpt lat="38.1501178" lon="13.3424124"><ele>36.333333333333336</ele><time>2026-04-19T07:56:59.715Z</time></trkpt><trkpt lat="38.1501973" lon="13.3423737"><ele>36.0</ele><time>2026-04-19T07:57:02.715Z</time></trkpt><trkpt lat="38.1502685" lon="13.3423181"><ele>36.0</ele><time>2026-04-19T07:57:05.716Z</time></trkpt><trkpt lat="38.1503514" lon="13.3422582"><ele>36.0</ele><time>2026-04-19T07:57:08.715Z</time></trkpt><trkpt lat="38.150404" lon="13.3422031"><ele>36.0</ele><time>2026-04-19T07:57:10.715Z</time></trkpt><trkpt lat="38.1504807" lon="13.3421487"><ele>36.0</ele><time>2026-04-19T07:57:13.715Z</time></trkpt><trkpt lat="38.1505673" lon="13.3421151"><ele>36.0</ele><time>2026-04-19T07:57:16.715Z</time></trkpt><trkpt lat="38.1506395" lon="13.3420666"><ele>36.0</ele><time>2026-04-19T07:57:19.715Z</time></trkpt><trkpt lat="38.1507191" lon="13.3420267"><ele>36.166666666666664</ele><time>2026-04-19T07:57:22.715Z</time></trkpt><trkpt lat="38.150796" lon="13.3419815"><ele>36.333333333333336</ele><time>2026-04-19T07:57:25.715Z</time></trkpt><trkpt lat="38.1508759" lon="13.3419407"><ele>36.5</ele><time>2026-04-19T07:57:28.716Z</time></trkpt><trkpt lat="38.1509457" lon="13.3418996"><ele>36.66666666666667</ele><time>2026-04-19T07:57:31.716Z</time></trkpt><trkpt lat="38.151036" lon="13.3418766"><ele>36.833333333333336</ele><time>2026-04-19T07:57:34.716Z</time></trkpt><trkpt lat="38.1510905" lon="13.3418344"><ele>37.0</ele><time>2026-04-19T07:57:37.715Z</time></trkpt><trkpt lat="38.1511473" lon="13.3417914"><ele>37.0</ele><time>2026-04-19T07:57:40.716Z</time></trkpt><trkpt lat="38.151225" lon="13.3417602"><ele>37.0</ele><time>2026-04-19T07:57:43.715Z</time></trkpt><trkpt lat="38.1512813" lon="13.3417199"><ele>37.0</ele><time>2026-04-19T07:57:45.715Z</time></trkpt><trkpt lat="38.1513599" lon="13.3416609"><ele>37.0</ele><time>2026-04-19T07:57:48.715Z</time></trkpt><trkpt lat="38.1514139" lon="13.3416176"><ele>37.0</ele><time>2026-04-19T07:57:50.715Z</time></trkpt><trkpt lat="38.1514788" lon="13.3415539"><ele>37.0</ele><time>2026-04-19T07:57:53.716Z</time></trkpt><trkpt lat="38.1515409" lon="13.341516"><ele>37.66666666666667</ele><time>2026-04-19T07:57:56.716Z</time></trkpt><trkpt lat="38.1516093" lon="13.3414879"><ele>38.333333333333336</ele><time>2026-04-19T07:57:59.716Z</time></trkpt><trkpt lat="38.1516752" lon="13.3414495"><ele>39.0</ele><time>2026-04-19T07:58:02.716Z</time></trkpt><trkpt lat="38.1517461" lon="13.3414067"><ele>39.666666666666664</ele><time>2026-04-19T07:58:05.715Z</time></trkpt><trkpt lat="38.1518168" lon="13.3413584"><ele>40.33333333333333</ele><time>2026-04-19T07:58:08.715Z</time></trkpt><trkpt lat="38.1518773" lon="13.3413031"><ele>41.0</ele><time>2026-04-19T07:58:11.716Z</time></trkpt><trkpt lat="38.1519498" lon="13.3412643"><ele>40.99999999999999</ele><time>2026-04-19T07:58:14.715Z</time></trkpt><trkpt lat="38.1520095" lon="13.3412143"><ele>41.0</ele><time>2026-04-19T07:58:17.715Z</time></trkpt><trkpt lat="38.1520732" lon="13.3411729"><ele>41.0</ele><time>2026-04-19T07:58:20.716Z</time></trkpt><trkpt lat="38.1521397" lon="13.3411232"><ele>41.0</ele><time>2026-04-19T07:58:23.715Z</time></trkpt><trkpt lat="38.1522114" lon="13.3410858"><ele>41.0</ele><time>2026-04-19T07:58:26.716Z</time></trkpt><trkpt lat="38.1522758" lon="13.3410431"><ele>40.99999999999999</ele><time>2026-04-19T07:58:29.715Z</time></trkpt><trkpt lat="38.1523411" lon="13.3410006"><ele>41.0</ele><time>2026-04-19T07:58:32.715Z</time></trkpt><trkpt lat="38.1523988" lon="13.3409599"><ele>40.71428571428571</ele><time>2026-04-19T07:58:35.716Z</time></trkpt><trkpt lat="38.152464" lon="13.3409156"><ele>40.42857142857143</ele><time>2026-04-19T07:58:38.715Z</time></trkpt><trkpt lat="38.152524" lon="13.3408802"><ele>40.14285714285714</ele><time>2026-04-19T07:58:41.715Z</time></trkpt><trkpt lat="38.1525978" lon="13.3408307"><ele>39.857142857142854</ele><time>2026-04-19T07:58:45.716Z</time></trkpt><trkpt lat="38.1526594" lon="13.3408017"><ele>39.57142857142857</ele><time>2026-04-19T07:58:48.716Z</time></trkpt><trkpt lat="38.1527224" lon="13.3407626"><ele>39.285714285714285</ele><time>2026-04-19T07:58:51.715Z</time></trkpt><trkpt lat="38.1527901" lon="13.3407254"><ele>39.0</ele><time>2026-04-19T07:58:54.716Z</time></trkpt><trkpt lat="38.1528563" lon="13.3406777"><ele>39.0</ele><time>2026-04-19T07:58:57.715Z</time></trkpt><trkpt lat="38.1529135" lon="13.3406267"><ele>39.0</ele><time>2026-04-19T07:59:00.715Z</time></trkpt><trkpt lat="38.1529875" lon="13.3405844"><ele>39.0</ele><time>2026-04-19T07:59:04.716Z</time></trkpt><trkpt lat="38.1530421" lon="13.3405349"><ele>39.0</ele><time>2026-04-19T07:59:07.716Z</time></trkpt><trkpt lat="38.1531085" lon="13.3404782"><ele>39.0</ele><time>2026-04-19T07:59:10.715Z</time></trkpt><trkpt lat="38.1531746" lon="13.3404377"><ele>39.0</ele><time>2026-04-19T07:59:13.715Z</time></trkpt><trkpt lat="38.1532423" lon="13.3404007"><ele>39.0</ele><time>2026-04-19T07:59:16.716Z</time></trkpt><trkpt lat="38.1533043" lon="13.3403529"><ele>39.285714285714285</ele><time>2026-04-19T07:59:19.716Z</time></trkpt><trkpt lat="38.1533662" lon="13.3403136"><ele>39.57142857142857</ele><time>2026-04-19T07:59:22.716Z</time></trkpt><trkpt lat="38.1534205" lon="13.3402534"><ele>39.857142857142854</ele><time>2026-04-19T07:59:25.716Z</time></trkpt><trkpt lat="38.1534858" lon="13.3402168"><ele>40.14285714285714</ele><time>2026-04-19T07:59:28.715Z</time></trkpt><trkpt lat="38.1535519" lon="13.3402149"><ele>40.42857142857143</ele><time>2026-04-19T07:59:31.716Z</time></trkpt><trkpt lat="38.1536191" lon="13.3402534"><ele>40.71428571428571</ele><time>2026-04-19T07:59:35.715Z</time></trkpt><trkpt lat="38.1536832" lon="13.3402597"><ele>41.0</ele><time>2026-04-19T07:59:38.716Z</time></trkpt><trkpt lat="38.1537504" lon="13.3402403"><ele>41.0</ele><time>2026-04-19T07:59:41.716Z</time></trkpt><trkpt lat="38.1538235" lon="13.3401797"><ele>41.0</ele><time>2026-04-19T07:59:45.716Z</time></trkpt><trkpt lat="38.1538941" lon="13.3401319"><ele>41.0</ele><time>2026-04-19T07:59:48.716Z</time></trkpt><trkpt lat="38.1539599" lon="13.3401081"><ele>41.0</ele><time>2026-04-19T07:59:50.716Z</time></trkpt><trkpt lat="38.1540228" lon="13.3400507"><ele>41.0</ele><time>2026-04-19T07:59:53.716Z</time></trkpt><trkpt lat="38.1540934" lon="13.3399981"><ele>41.0</ele><time>2026-04-19T07:59:56.716Z</time></trkpt><trkpt lat="38.1541647" lon="13.3399344"><ele>40.857142857142854</ele><time>2026-04-19T07:59:59.716Z</time></trkpt><trkpt lat="38.1542389" lon="13.3398912"><ele>40.714285714285715</ele><time>2026-04-19T08:00:02.716Z</time></trkpt><trkpt lat="38.1543108" lon="13.3398294"><ele>40.57142857142857</ele><time>2026-04-19T08:00:05.715Z</time></trkpt><trkpt lat="38.1543667" lon="13.3397851"><ele>40.42857142857143</ele><time>2026-04-19T08:00:07.715Z</time></trkpt><trkpt lat="38.154435" lon="13.3397418"><ele>40.285714285714285</ele><time>2026-04-19T08:00:10.715Z</time></trkpt><trkpt lat="38.1544919" lon="13.3397043"><ele>40.14285714285714</ele><time>2026-04-19T08:00:12.716Z</time></trkpt><trkpt lat="38.1545545" lon="13.3396764"><ele>40.0</ele><time>2026-04-19T08:00:14.715Z</time></trkpt><trkpt lat="38.1546353" lon="13.3395956"><ele>40.0</ele><time>2026-04-19T08:00:17.716Z</time></trkpt><trkpt lat="38.1547063" lon="13.339535"><ele>40.0</ele><time>2026-04-19T08:00:20.715Z</time></trkpt><trkpt lat="38.1547801" lon="13.3394779"><ele>40.0</ele><time>2026-04-19T08:00:23.715Z</time></trkpt><trkpt lat="38.1548554" lon="13.3394412"><ele>40.0</ele><time>2026-04-19T08:00:26.715Z</time></trkpt><trkpt lat="38.1549262" lon="13.3393997"><ele>40.0</ele><time>2026-04-19T08:00:30.715Z</time></trkpt><trkpt lat="38.1549855" lon="13.3393536"><ele>40.0</ele><time>2026-04-19T08:00:33.716Z</time></trkpt><trkpt lat="38.1550542" lon="13.3393065"><ele>40.333333333333336</ele><time>2026-04-19T08:00:36.716Z</time></trkpt><trkpt lat="38.1551263" lon="13.3392526"><ele>40.66666666666667</ele><time>2026-04-19T08:00:39.715Z</time></trkpt><trkpt lat="38.1551896" lon="13.3391934"><ele>41.0</ele><time>2026-04-19T08:00:42.715Z</time></trkpt><trkpt lat="38.1552679" lon="13.3391791"><ele>41.333333333333336</ele><time>2026-04-19T08:00:46.715Z</time></trkpt><trkpt lat="38.1553477" lon="13.3391807"><ele>41.666666666666664</ele><time>2026-04-19T08:00:51.715Z</time></trkpt><trkpt lat="38.1554056" lon="13.3391418"><ele>42.0</ele><time>2026-04-19T08:00:54.716Z</time></trkpt><trkpt lat="38.1554646" lon="13.3391049"><ele>42.0</ele><time>2026-04-19T08:00:58.715Z</time></trkpt><trkpt lat="38.1555327" lon="13.3391421"><ele>42.0</ele><time>2026-04-19T08:01:04.716Z</time></trkpt><trkpt lat="38.1555965" lon="13.3391717"><ele>42.0</ele><time>2026-04-19T08:01:08.716Z</time></trkpt><trkpt lat="38.1556461" lon="13.3392453"><ele>42.0</ele><time>2026-04-19T08:01:12.716Z</time></trkpt><trkpt lat="38.1556782" lon="13.3393385"><ele>42.0</ele><time>2026-04-19T08:01:16.715Z</time></trkpt><trkpt lat="38.1557011" lon="13.3394378"><ele>42.0</ele><time>2026-04-19T08:01:20.715Z</time></trkpt><trkpt lat="38.1557237" lon="13.3395291"><ele>42.333333333333336</ele><time>2026-04-19T08:01:24.715Z</time></trkpt><trkpt lat="38.1557478" lon="13.3396178"><ele>42.666666666666664</ele><time>2026-04-19T08:01:28.715Z</time></trkpt><trkpt lat="38.1557653" lon="13.3397199"><ele>43.0</ele><time>2026-04-19T08:01:32.715Z</time></trkpt><trkpt lat="38.155785" lon="13.33982"><ele>43.33333333333333</ele><time>2026-04-19T08:01:36.715Z</time></trkpt><trkpt lat="38.155805" lon="13.3399019"><ele>43.666666666666664</ele><time>2026-04-19T08:01:39.715Z</time></trkpt><trkpt lat="38.1558214" lon="13.3400012"><ele>44.0</ele><time>2026-04-19T08:01:43.716Z</time></trkpt><trkpt lat="38.1558499" lon="13.3400882"><ele>44.0</ele><time>2026-04-19T08:01:47.716Z</time></trkpt><trkpt lat="38.1558725" lon="13.340186"><ele>44.0</ele><time>2026-04-19T08:01:51.715Z</time></trkpt><trkpt lat="38.1558994" lon="13.3402616"><ele>44.0</ele><time>2026-04-19T08:01:54.715Z</time></trkpt><trkpt lat="38.1559324" lon="13.3403529"><ele>44.0</ele><time>2026-04-19T08:01:58.716Z</time></trkpt><trkpt lat="38.1559505" lon="13.3404546"><ele>44.0</ele><time>2026-04-19T08:02:02.715Z</time></trkpt><trkpt lat="38.155976" lon="13.3405384"><ele>44.0</ele><time>2026-04-19T08:02:06.715Z</time></trkpt><trkpt lat="38.1560067" lon="13.3406238"><ele>44.0</ele><time>2026-04-19T08:02:10.716Z</time></trkpt><trkpt lat="38.156018" lon="13.3407149"><ele>44.0</ele><time>2026-04-19T08:02:13.715Z</time></trkpt><trkpt lat="38.1560325" lon="13.340801"><ele>44.0</ele><time>2026-04-19T08:02:16.716Z</time></trkpt><trkpt lat="38.1560698" lon="13.3408931"><ele>44.0</ele><time>2026-04-19T08:02:19.716Z</time></trkpt><trkpt lat="38.1561055" lon="13.3409894"><ele>44.0</ele><time>2026-04-19T08:02:22.715Z</time></trkpt><trkpt lat="38.1561286" lon="13.3410857"><ele>44.0</ele><time>2026-04-19T08:02:25.715Z</time></trkpt><trkpt lat="38.1561567" lon="13.3411729"><ele>44.0</ele><time>2026-04-19T08:02:28.715Z</time></trkpt><trkpt lat="38.1561888" lon="13.341279"><ele>44.0</ele><time>2026-04-19T08:02:31.716Z</time></trkpt><trkpt lat="38.1562221" lon="13.341387"><ele>44.0</ele><time>2026-04-19T08:02:34.716Z</time></trkpt><trkpt lat="38.1562492" lon="13.3415039"><ele>44.0</ele><time>2026-04-19T08:02:37.716Z</time></trkpt><trkpt lat="38.1562703" lon="13.34158"><ele>44.0</ele><time>2026-04-19T08:02:39.715Z</time></trkpt><trkpt lat="38.1562946" lon="13.3416906"><ele>44.0</ele><time>2026-04-19T08:02:42.716Z</time></trkpt><trkpt lat="38.1563546" lon="13.3417707"><ele>44.666666666666664</ele><time>2026-04-19T08:02:45.716Z</time></trkpt><trkpt lat="38.1564378" lon="13.3418119"><ele>45.33333333333333</ele><time>2026-04-19T08:02:48.716Z</time></trkpt><trkpt lat="38.1565032" lon="13.3418092"><ele>46.0</ele><time>2026-04-19T08:02:50.716Z</time></trkpt><trkpt lat="38.156581" lon="13.3417748"><ele>46.666666666666664</ele><time>2026-04-19T08:02:53.715Z</time></trkpt><trkpt lat="38.1566449" lon="13.3417204"><ele>47.333333333333336</ele><time>2026-04-19T08:02:56.715Z</time></trkpt><trkpt lat="38.1567083" lon="13.3416521"><ele>48.0</ele><time>2026-04-19T08:02:59.716Z</time></trkpt><trkpt lat="38.1567698" lon="13.3416034"><ele>48.333333333333336</ele><time>2026-04-19T08:03:02.716Z</time></trkpt><trkpt lat="38.1568384" lon="13.341564"><ele>48.66666666666667</ele><time>2026-04-19T08:03:05.715Z</time></trkpt><trkpt lat="38.1569158" lon="13.3415227"><ele>49.0</ele><time>2026-04-19T08:03:08.716Z</time></trkpt><trkpt lat="38.1569838" lon="13.3414645"><ele>49.333333333333336</ele><time>2026-04-19T08:03:11.716Z</time></trkpt><trkpt lat="38.1570619" lon="13.3414202"><ele>49.66666666666667</ele><time>2026-04-19T08:03:14.715Z</time></trkpt><trkpt lat="38.1571427" lon="13.3413647"><ele>50.0</ele><time>2026-04-19T08:03:17.716Z</time></trkpt><trkpt lat="38.157223" lon="13.3413183"><ele>50.16666666666667</ele><time>2026-04-19T08:03:20.715Z</time></trkpt><trkpt lat="38.1573068" lon="13.3412667"><ele>50.333333333333336</ele><time>2026-04-19T08:03:23.716Z</time></trkpt><trkpt lat="38.1573715" lon="13.3412297"><ele>50.5</ele><time>2026-04-19T08:03:25.716Z</time></trkpt><trkpt lat="38.1574293" lon="13.3411925"><ele>50.66666666666667</ele><time>2026-04-19T08:03:27.716Z</time></trkpt><trkpt lat="38.1574865" lon="13.3411556"><ele>50.833333333333336</ele><time>2026-04-19T08:03:29.716Z</time></trkpt><trkpt lat="38.1575534" lon="13.3411229"><ele>51.0</ele><time>2026-04-19T08:03:31.715Z</time></trkpt><trkpt lat="38.1576398" lon="13.341069"><ele>51.199999999999996</ele><time>2026-04-19T08:03:34.715Z</time></trkpt><trkpt lat="38.1577122" lon="13.3410352"><ele>51.4</ele><time>2026-04-19T08:03:37.715Z</time></trkpt><trkpt lat="38.1577772" lon="13.3409959"><ele>51.6</ele><time>2026-04-19T08:03:41.715Z</time></trkpt><trkpt lat="38.1578985" lon="13.3409097"><ele>51.8</ele><time>2026-04-19T08:03:55.715Z</time></trkpt><trkpt lat="38.1579718" lon="13.3408896"><ele>52.0</ele><time>2026-04-19T08:04:01.716Z</time></trkpt><trkpt lat="38.1580668" lon="13.340946"><ele>52.0</ele><time>2026-04-19T08:05:40.716Z</time></trkpt><trkpt lat="38.1581297" lon="13.3409972"><ele>52.0</ele><time>2026-04-19T08:05:44.715Z</time></trkpt><trkpt lat="38.1581483" lon="13.3410797"><ele>52.0</ele><time>2026-04-19T08:05:48.716Z</time></trkpt><trkpt lat="38.1581682" lon="13.3411575"><ele>52.0</ele><time>2026-04-19T08:05:51.715Z</time></trkpt><trkpt lat="38.1582067" lon="13.3412597"><ele>52.0</ele><time>2026-04-19T08:05:55.715Z</time></trkpt><trkpt lat="38.1582547" lon="13.3413359"><ele>52.0</ele><time>2026-04-19T08:05:58.716Z</time></trkpt><trkpt lat="38.1582926" lon="13.3414147"><ele>52.0</ele><time>2026-04-19T08:06:01.715Z</time></trkpt><trkpt lat="38.1583216" lon="13.3415026"><ele>51.714285714285715</ele><time>2026-04-19T08:06:05.716Z</time></trkpt><trkpt lat="38.1583469" lon="13.3415909"><ele>51.42857142857143</ele><time>2026-04-19T08:06:08.715Z</time></trkpt><trkpt lat="38.1583615" lon="13.3416735"><ele>51.142857142857146</ele><time>2026-04-19T08:06:11.716Z</time></trkpt><trkpt lat="38.1584234" lon="13.3416383"><ele>50.85714285714286</ele><time>2026-04-19T08:06:15.715Z</time></trkpt><trkpt lat="38.1584955" lon="13.3416129"><ele>50.57142857142857</ele><time>2026-04-19T08:06:18.716Z</time></trkpt><trkpt lat="38.1585653" lon="13.3415649"><ele>50.28571428571429</ele><time>2026-04-19T08:06:22.716Z</time></trkpt><trkpt lat="38.1586271" lon="13.3415207"><ele>50.0</ele><time>2026-04-19T08:06:25.715Z</time></trkpt><trkpt lat="38.1586899" lon="13.341463"><ele>50.00000000000001</ele><time>2026-04-19T08:06:28.715Z</time></trkpt><trkpt lat="38.1587602" lon="13.3414035"><ele>50.0</ele><time>2026-04-19T08:06:31.715Z</time></trkpt><trkpt lat="38.1588247" lon="13.3413581"><ele>50.0</ele><time>2026-04-19T08:06:34.715Z</time></trkpt><trkpt lat="38.1588797" lon="13.3413079"><ele>50.0</ele><time>2026-04-19T08:06:37.715Z</time></trkpt><trkpt lat="38.1589329" lon="13.3412614"><ele>50.0</ele><time>2026-04-19T08:06:40.715Z</time></trkpt><trkpt lat="38.1589952" lon="13.3412238"><ele>50.00000000000001</ele><time>2026-04-19T08:06:43.715Z</time></trkpt><trkpt lat="38.1590666" lon="13.3411774"><ele>50.0</ele><time>2026-04-19T08:06:46.715Z</time></trkpt><trkpt lat="38.1591331" lon="13.3411477"><ele>49.833333333333336</ele><time>2026-04-19T08:06:49.715Z</time></trkpt><trkpt lat="38.1591876" lon="13.3411048"><ele>49.66666666666667</ele><time>2026-04-19T08:06:51.715Z</time></trkpt><trkpt lat="38.1592553" lon="13.3410522"><ele>49.5</ele><time>2026-04-19T08:06:54.715Z</time></trkpt><trkpt lat="38.1593344" lon="13.3410023"><ele>49.33333333333333</ele><time>2026-04-19T08:06:58.716Z</time></trkpt><trkpt lat="38.1594102" lon="13.3409365"><ele>49.166666666666664</ele><time>2026-04-19T08:07:01.716Z</time></trkpt><trkpt lat="38.1594738" lon="13.3408873"><ele>49.0</ele><time>2026-04-19T08:07:04.716Z</time></trkpt><trkpt lat="38.1595488" lon="13.3408403"><ele>48.99999999999999</ele><time>2026-04-19T08:07:07.715Z</time></trkpt><trkpt lat="38.1596113" lon="13.3407991"><ele>49.0</ele><time>2026-04-19T08:07:10.716Z</time></trkpt><trkpt lat="38.1596781" lon="13.3407635"><ele>49.0</ele><time>2026-04-19T08:07:13.716Z</time></trkpt><trkpt lat="38.1597464" lon="13.3407274"><ele>49.0</ele><time>2026-04-19T08:07:16.716Z</time></trkpt><trkpt lat="38.1598188" lon="13.3406681"><ele>48.99999999999999</ele><time>2026-04-19T08:07:19.716Z</time></trkpt><trkpt lat="38.1598883" lon="13.3406146"><ele>49.0</ele><time>2026-04-19T08:07:22.716Z</time></trkpt><trkpt lat="38.1599607" lon="13.3405661"><ele>49.0</ele><time>2026-04-19T08:07:25.716Z</time></trkpt><trkpt lat="38.1600253" lon="13.3405262"><ele>49.0</ele><time>2026-04-19T08:07:28.716Z</time></trkpt><trkpt lat="38.1600845" lon="13.3404711"><ele>49.0</ele><time>2026-04-19T08:07:31.715Z</time></trkpt><trkpt lat="38.1601406" lon="13.3404201"><ele>49.0</ele><time>2026-04-19T08:07:34.715Z</time></trkpt><trkpt lat="38.1602095" lon="13.3403653"><ele>49.0</ele><time>2026-04-19T08:07:38.715Z</time></trkpt><trkpt lat="38.1602789" lon="13.3403215"><ele>49.0</ele><time>2026-04-19T08:07:42.715Z</time></trkpt><trkpt lat="38.1603441" lon="13.3402818"><ele>49.0</ele><time>2026-04-19T08:07:46.715Z</time></trkpt><trkpt lat="38.1604072" lon="13.3402457"><ele>49.0</ele><time>2026-04-19T08:07:50.715Z</time></trkpt><trkpt lat="38.1604492" lon="13.3401834"><ele>49.0</ele><time>2026-04-19T08:08:55.715Z</time></trkpt><trkpt lat="38.1605076" lon="13.3401253"><ele>49.0</ele><time>2026-04-19T08:09:02.715Z</time></trkpt><trkpt lat="38.1605629" lon="13.3400803"><ele>49.0</ele><time>2026-04-19T08:09:07.714Z</time></trkpt><trkpt lat="38.1606197" lon="13.3400359"><ele>49.0</ele><time>2026-04-19T08:09:45.715Z</time></trkpt><trkpt lat="38.1606978" lon="13.3399914"><ele>49.0</ele><time>2026-04-19T08:09:49.714Z</time></trkpt><trkpt lat="38.1607602" lon="13.3399509"><ele>49.0</ele><time>2026-04-19T08:09:52.714Z</time></trkpt><trkpt lat="38.160833" lon="13.3399007"><ele>49.33333333333333</ele><time>2026-04-19T08:09:55.714Z</time></trkpt><trkpt lat="38.1608994" lon="13.3398516"><ele>49.666666666666664</ele><time>2026-04-19T08:09:58.715Z</time></trkpt><trkpt lat="38.1609399" lon="13.3397821"><ele>50.0</ele><time>2026-04-19T08:10:01.714Z</time></trkpt><trkpt lat="38.1609801" lon="13.3396786"><ele>50.33333333333333</ele><time>2026-04-19T08:10:04.714Z</time></trkpt><trkpt lat="38.1609648" lon="13.3395812"><ele>50.666666666666664</ele><time>2026-04-19T08:10:07.715Z</time></trkpt><trkpt lat="38.1609425" lon="13.3394695"><ele>51.0</ele><time>2026-04-19T08:10:10.714Z</time></trkpt><trkpt lat="38.1609356" lon="13.3393732"><ele>51.0</ele><time>2026-04-19T08:10:13.714Z</time></trkpt><trkpt lat="38.160913" lon="13.3392928"><ele>51.0</ele><time>2026-04-19T08:10:16.714Z</time></trkpt><trkpt lat="38.1608857" lon="13.3392146"><ele>51.0</ele><time>2026-04-19T08:10:19.715Z</time></trkpt><trkpt lat="38.1609339" lon="13.3391309"><ele>51.0</ele><time>2026-04-19T08:10:23.714Z</time></trkpt><trkpt lat="38.1609992" lon="13.3390654"><ele>51.0</ele><time>2026-04-19T08:10:26.715Z</time></trkpt><trkpt lat="38.1610659" lon="13.3389898"><ele>51.0</ele><time>2026-04-19T08:10:29.714Z</time></trkpt><trkpt lat="38.1611252" lon="13.3389495"><ele>51.0</ele><time>2026-04-19T08:10:31.715Z</time></trkpt><trkpt lat="38.1611873" lon="13.3389191"><ele>51.0</ele><time>2026-04-19T08:10:33.715Z</time></trkpt><trkpt lat="38.1612759" lon="13.3389383"><ele>51.0</ele><time>2026-04-19T08:10:36.714Z</time></trkpt><trkpt lat="38.1613604" lon="13.3389364"><ele>51.0</ele><time>2026-04-19T08:10:39.714Z</time></trkpt><trkpt lat="38.1614287" lon="13.338939"><ele>51.0</ele><time>2026-04-19T08:10:42.715Z</time></trkpt><trkpt lat="38.1615007" lon="13.3389617"><ele>51.0</ele><time>2026-04-19T08:10:45.715Z</time></trkpt><trkpt lat="38.1615604" lon="13.3389251"><ele>51.166666666666664</ele><time>2026-04-19T08:10:48.715Z</time></trkpt><trkpt lat="38.1616172" lon="13.3388551"><ele>51.33333333333333</ele><time>2026-04-19T08:10:52.715Z</time></trkpt><trkpt lat="38.1616788" lon="13.3388003"><ele>51.5</ele><time>2026-04-19T08:10:55.715Z</time></trkpt><trkpt lat="38.1617515" lon="13.3387658"><ele>51.666666666666664</ele><time>2026-04-19T08:11:00.715Z</time></trkpt><trkpt lat="38.1618248" lon="13.3387281"><ele>51.83333333333333</ele><time>2026-04-19T08:11:03.715Z</time></trkpt><trkpt lat="38.1618877" lon="13.3386823"><ele>52.0</ele><time>2026-04-19T08:11:06.715Z</time></trkpt><trkpt lat="38.1619467" lon="13.3386311"><ele>51.99999999999999</ele><time>2026-04-19T08:11:09.714Z</time></trkpt><trkpt lat="38.162009" lon="13.3385854"><ele>52.0</ele><time>2026-04-19T08:11:12.714Z</time></trkpt><trkpt lat="38.1620685" lon="13.338544"><ele>52.0</ele><time>2026-04-19T08:11:15.715Z</time></trkpt><trkpt lat="38.1621283" lon="13.3384925"><ele>52.0</ele><time>2026-04-19T08:11:18.714Z</time></trkpt><trkpt lat="38.1621975" lon="13.3384416"><ele>51.99999999999999</ele><time>2026-04-19T08:11:21.715Z</time></trkpt><trkpt lat="38.1622637" lon="13.3383961"><ele>52.0</ele><time>2026-04-19T08:11:24.715Z</time></trkpt><trkpt lat="38.162336" lon="13.3383395"><ele>52.285714285714285</ele><time>2026-04-19T08:11:27.715Z</time></trkpt><trkpt lat="38.1624073" lon="13.3382934"><ele>52.57142857142858</ele><time>2026-04-19T08:11:31.714Z</time></trkpt><trkpt lat="38.1624712" lon="13.3382649"><ele>52.85714285714286</ele><time>2026-04-19T08:11:42.715Z</time></trkpt><trkpt lat="38.1625393" lon="13.3382178"><ele>53.14285714285714</ele><time>2026-04-19T08:11:46.714Z</time></trkpt><trkpt lat="38.1626056" lon="13.3381615"><ele>53.42857142857143</ele><time>2026-04-19T08:11:49.714Z</time></trkpt><trkpt lat="38.1626621" lon="13.3381041"><ele>53.714285714285715</ele><time>2026-04-19T08:11:52.715Z</time></trkpt><trkpt lat="38.1627243" lon="13.3380604"><ele>54.0</ele><time>2026-04-19T08:11:55.715Z</time></trkpt><trkpt lat="38.1627863" lon="13.3380099"><ele>54.0</ele><time>2026-04-19T08:11:58.714Z</time></trkpt><trkpt lat="38.1628436" lon="13.3379556"><ele>54.0</ele><time>2026-04-19T08:12:02.714Z</time></trkpt><trkpt lat="38.1629088" lon="13.3379198"><ele>54.0</ele><time>2026-04-19T08:12:07.714Z</time></trkpt><trkpt lat="38.1629781" lon="13.3378629"><ele>54.0</ele><time>2026-04-19T08:12:11.715Z</time></trkpt><trkpt lat="38.1630455" lon="13.3378224"><ele>54.0</ele><time>2026-04-19T08:12:14.714Z</time></trkpt><trkpt lat="38.1631053" lon="13.3377803"><ele>54.0</ele><time>2026-04-19T08:12:17.715Z</time></trkpt><trkpt lat="38.1631658" lon="13.3377317"><ele>54.0</ele><time>2026-04-19T08:12:20.714Z</time></trkpt><trkpt lat="38.1632251" lon="13.33768"><ele>54.14285714285714</ele><time>2026-04-19T08:12:23.714Z</time></trkpt><trkpt lat="38.1632883" lon="13.337626"><ele>54.285714285714285</ele><time>2026-04-19T08:12:27.715Z</time></trkpt><trkpt lat="38.1633559" lon="13.3375798"><ele>54.42857142857143</ele><time>2026-04-19T08:12:32.715Z</time></trkpt><trkpt lat="38.1634295" lon="13.3375381"><ele>54.57142857142857</ele><time>2026-04-19T08:12:36.716Z</time></trkpt><trkpt lat="38.1634771" lon="13.3374682"><ele>54.714285714285715</ele><time>2026-04-19T08:12:41.715Z</time></trkpt><trkpt lat="38.1635038" lon="13.3373937"><ele>54.857142857142854</ele><time>2026-04-19T08:12:45.716Z</time></trkpt><trkpt lat="38.1635459" lon="13.3373218"><ele>55.0</ele><time>2026-04-19T08:12:50.715Z</time></trkpt><trkpt lat="38.16356" lon="13.3372371"><ele>54.99999999999999</ele><time>2026-04-19T08:12:53.715Z</time></trkpt><trkpt lat="38.1636088" lon="13.337161"><ele>55.0</ele><time>2026-04-19T08:12:57.716Z</time></trkpt><trkpt lat="38.1636664" lon="13.3371152"><ele>55.0</ele><time>2026-04-19T08:13:01.715Z</time></trkpt><trkpt lat="38.163696" lon="13.3370401"><ele>55.0</ele><time>2026-04-19T08:13:05.715Z</time></trkpt><trkpt lat="38.1637628" lon="13.3369839"><ele>55.0</ele><time>2026-04-19T08:13:09.715Z</time></trkpt><trkpt lat="38.163831" lon="13.3369434"><ele>54.99999999999999</ele><time>2026-04-19T08:13:14.715Z</time></trkpt><trkpt lat="38.1638954" lon="13.3369194"><ele>55.0</ele><time>2026-04-19T08:13:18.715Z</time></trkpt><trkpt lat="38.1639718" lon="13.3368978"><ele>56.0</ele><time>2026-04-19T08:13:23.716Z</time></trkpt><trkpt lat="38.1640431" lon="13.3368695"><ele>57.0</ele><time>2026-04-19T08:13:27.716Z</time></trkpt><trkpt lat="38.1640784" lon="13.3367995"><ele>58.0</ele><time>2026-04-19T08:13:31.716Z</time></trkpt><trkpt lat="38.1641378" lon="13.3367306"><ele>59.0</ele><time>2026-04-19T08:13:48.715Z</time></trkpt><trkpt lat="38.1641823" lon="13.3366598"><ele>60.00000000000001</ele><time>2026-04-19T08:13:52.715Z</time></trkpt><trkpt lat="38.1642256" lon="13.3365928"><ele>61.0</ele><time>2026-04-19T08:13:56.715Z</time></trkpt><trkpt lat="38.1642899" lon="13.3365394"><ele>62.0</ele><time>2026-04-19T08:14:00.715Z</time></trkpt><trkpt lat="38.164356" lon="13.3365189"><ele>62.0</ele><time>2026-04-19T08:14:05.715Z</time></trkpt><trkpt lat="38.1644103" lon="13.3365691"><ele>62.00000000000001</ele><time>2026-04-19T08:14:49.714Z</time></trkpt><trkpt lat="38.1644668" lon="13.3365186"><ele>62.0</ele><time>2026-04-19T08:15:20.714Z</time></trkpt><trkpt lat="38.1644943" lon="13.3364308"><ele>62.0</ele><time>2026-04-19T08:15:24.715Z</time></trkpt><trkpt lat="38.1645413" lon="13.3363573"><ele>62.00000000000001</ele><time>2026-04-19T08:15:29.715Z</time></trkpt><trkpt lat="38.1646096" lon="13.3363316"><ele>62.0</ele><time>2026-04-19T08:15:33.715Z</time></trkpt><trkpt lat="38.164654" lon="13.3362517"><ele>62.0</ele><time>2026-04-19T08:15:39.715Z</time></trkpt><trkpt lat="38.1647062" lon="13.3361938"><ele>62.0</ele><time>2026-04-19T08:15:43.714Z</time></trkpt><trkpt lat="38.164776" lon="13.3361691"><ele>62.00000000000001</ele><time>2026-04-19T08:15:49.715Z</time></trkpt><trkpt lat="38.1648233" lon="13.3361049"><ele>62.0</ele><time>2026-04-19T08:15:56.715Z</time></trkpt><trkpt lat="38.164839" lon="13.3360183"><ele>62.0</ele><time>2026-04-19T08:16:27.714Z</time></trkpt><trkpt lat="38.1648463" lon="13.3359379"><ele>62.00000000000001</ele><time>2026-04-19T08:16:33.714Z</time></trkpt><trkpt lat="38.1648318" lon="13.3358386"><ele>62.0</ele><time>2026-04-19T08:16:37.715Z</time></trkpt><trkpt lat="38.164846" lon="13.3357431"><ele>62.0</ele><time>2026-04-19T08:16:41.714Z</time></trkpt><trkpt lat="38.1649077" lon="13.3356894"><ele>62.142857142857146</ele><time>2026-04-19T08:16:45.715Z</time></trkpt><trkpt lat="38.1649637" lon="13.3356372"><ele>62.28571428571429</ele><time>2026-04-19T08:16:48.715Z</time></trkpt><trkpt lat="38.1650192" lon="13.3355924"><ele>62.42857142857143</ele><time>2026-04-19T08:16:52.715Z</time></trkpt><trkpt lat="38.1649963" lon="13.3356732"><ele>62.57142857142857</ele><time>2026-04-19T08:17:04.714Z</time></trkpt><trkpt lat="38.16501" lon="13.335758"><ele>62.714285714285715</ele><time>2026-04-19T08:17:09.715Z</time></trkpt><trkpt lat="38.165008" lon="13.3356742"><ele>62.85714285714286</ele><time>2026-04-19T08:18:56.714Z</time></trkpt><trkpt lat="38.1649551" lon="13.3355979"><ele>63.0</ele><time>2026-04-19T08:19:05.714Z</time></trkpt><trkpt lat="38.1648962" lon="13.3356594"><ele>62.833333333333336</ele><time>2026-04-19T08:19:10.714Z</time></trkpt><trkpt lat="38.164843" lon="13.3357172"><ele>62.66666666666667</ele><time>2026-04-19T08:19:14.713Z</time></trkpt><trkpt lat="38.1647542" lon="13.3357386"><ele>62.5</ele><time>2026-04-19T08:19:17.713Z</time></trkpt><trkpt lat="38.1646883" lon="13.3357684"><ele>62.333333333333336</ele><time>2026-04-19T08:19:19.713Z</time></trkpt><trkpt lat="38.1646168" lon="13.3358308"><ele>62.16666666666667</ele><time>2026-04-19T08:19:22.714Z</time></trkpt><trkpt lat="38.1645373" lon="13.3358618"><ele>62.0</ele><time>2026-04-19T08:19:25.714Z</time></trkpt><trkpt lat="38.1644819" lon="13.335909"><ele>62.0</ele><time>2026-04-19T08:19:27.714Z</time></trkpt><trkpt lat="38.1644165" lon="13.3359561"><ele>62.00000000000001</ele><time>2026-04-19T08:19:29.714Z</time></trkpt><trkpt lat="38.164351" lon="13.3359951"><ele>62.0</ele><time>2026-04-19T08:19:31.713Z</time></trkpt><trkpt lat="38.1642886" lon="13.3360501"><ele>62.0</ele><time>2026-04-19T08:19:33.713Z</time></trkpt><trkpt lat="38.1642286" lon="13.3361029"><ele>62.00000000000001</ele><time>2026-04-19T08:19:35.714Z</time></trkpt><trkpt lat="38.1641636" lon="13.3361347"><ele>62.0</ele><time>2026-04-19T08:19:37.713Z</time></trkpt><trkpt lat="38.1640973" lon="13.3361803"><ele>62.0</ele><time>2026-04-19T08:19:39.713Z</time></trkpt><trkpt lat="38.1640327" lon="13.3362287"><ele>61.28571428571429</ele><time>2026-04-19T08:19:41.714Z</time></trkpt><trkpt lat="38.1639704" lon="13.3362907"><ele>60.57142857142858</ele><time>2026-04-19T08:19:43.713Z</time></trkpt><trkpt lat="38.1639125" lon="13.3363365"><ele>59.85714285714286</ele><time>2026-04-19T08:19:45.714Z</time></trkpt><trkpt lat="38.1638467" lon="13.3363794"><ele>59.14285714285714</ele><time>2026-04-19T08:19:47.713Z</time></trkpt><trkpt lat="38.1637863" lon="13.3364254"><ele>58.42857142857142</ele><time>2026-04-19T08:19:49.714Z</time></trkpt><trkpt lat="38.1637178" lon="13.3364584"><ele>57.71428571428571</ele><time>2026-04-19T08:19:51.714Z</time></trkpt><trkpt lat="38.1636473" lon="13.336506"><ele>57.0</ele><time>2026-04-19T08:19:53.714Z</time></trkpt><trkpt lat="38.1635772" lon="13.336551"><ele>56.857142857142854</ele><time>2026-04-19T08:19:55.714Z</time></trkpt><trkpt lat="38.163514" lon="13.336603"><ele>56.71428571428571</ele><time>2026-04-19T08:19:57.714Z</time></trkpt><trkpt lat="38.1634518" lon="13.3366419"><ele>56.57142857142857</ele><time>2026-04-19T08:19:59.713Z</time></trkpt><trkpt lat="38.1633833" lon="13.3366843"><ele>56.42857142857143</ele><time>2026-04-19T08:20:01.714Z</time></trkpt><trkpt lat="38.1633209" lon="13.3367286"><ele>56.285714285714285</ele><time>2026-04-19T08:20:03.713Z</time></trkpt><trkpt lat="38.1632525" lon="13.3367771"><ele>56.14285714285714</ele><time>2026-04-19T08:20:05.713Z</time></trkpt><trkpt lat="38.1631839" lon="13.3368243"><ele>56.0</ele><time>2026-04-19T08:20:07.713Z</time></trkpt><trkpt lat="38.1631151" lon="13.3368796"><ele>56.00000000000001</ele><time>2026-04-19T08:20:09.714Z</time></trkpt><trkpt lat="38.1630607" lon="13.3369303"><ele>56.0</ele><time>2026-04-19T08:20:11.713Z</time></trkpt><trkpt lat="38.1629943" lon="13.3370012"><ele>56.0</ele><time>2026-04-19T08:20:14.714Z</time></trkpt><trkpt lat="38.1629183" lon="13.3370645"><ele>56.0</ele><time>2026-04-19T08:20:17.713Z</time></trkpt><trkpt lat="38.1628615" lon="13.3371069"><ele>56.00000000000001</ele><time>2026-04-19T08:20:19.714Z</time></trkpt><trkpt lat="38.162798" lon="13.3371598"><ele>56.0</ele><time>2026-04-19T08:20:21.714Z</time></trkpt><trkpt lat="38.1627251" lon="13.3372222"><ele>55.714285714285715</ele><time>2026-04-19T08:20:24.714Z</time></trkpt><trkpt lat="38.1626733" lon="13.3372686"><ele>55.42857142857143</ele><time>2026-04-19T08:20:26.713Z</time></trkpt><trkpt lat="38.1626168" lon="13.3373174"><ele>55.14285714285714</ele><time>2026-04-19T08:20:28.714Z</time></trkpt><trkpt lat="38.1625607" lon="13.33738"><ele>54.85714285714286</ele><time>2026-04-19T08:20:30.713Z</time></trkpt><trkpt lat="38.1624829" lon="13.3374363"><ele>54.57142857142857</ele><time>2026-04-19T08:20:33.713Z</time></trkpt><trkpt lat="38.1624123" lon="13.3374889"><ele>54.285714285714285</ele><time>2026-04-19T08:20:36.714Z</time></trkpt><trkpt lat="38.1623539" lon="13.3375323"><ele>54.0</ele><time>2026-04-19T08:20:39.713Z</time></trkpt><trkpt lat="38.1622936" lon="13.3375718"><ele>53.42857142857143</ele><time>2026-04-19T08:20:42.714Z</time></trkpt><trkpt lat="38.1622342" lon="13.3376118"><ele>52.857142857142854</ele><time>2026-04-19T08:20:45.713Z</time></trkpt><trkpt lat="38.1621747" lon="13.337648"><ele>52.28571428571429</ele><time>2026-04-19T08:20:49.713Z</time></trkpt><trkpt lat="38.1621152" lon="13.3376982"><ele>51.714285714285715</ele><time>2026-04-19T08:20:53.714Z</time></trkpt><trkpt lat="38.1620501" lon="13.3377248"><ele>51.142857142857146</ele><time>2026-04-19T08:20:57.714Z</time></trkpt><trkpt lat="38.1619892" lon="13.3377532"><ele>50.57142857142858</ele><time>2026-04-19T08:21:00.713Z</time></trkpt><trkpt lat="38.1619279" lon="13.3377756"><ele>50.0</ele><time>2026-04-19T08:21:04.713Z</time></trkpt><trkpt lat="38.1618682" lon="13.3378231"><ele>50.00000000000001</ele><time>2026-04-19T08:21:08.713Z</time></trkpt><trkpt lat="38.1618017" lon="13.3378733"><ele>50.0</ele><time>2026-04-19T08:21:12.713Z</time></trkpt><trkpt lat="38.1617458" lon="13.3379189"><ele>50.0</ele><time>2026-04-19T08:21:15.714Z</time></trkpt><trkpt lat="38.1616694" lon="13.3379686"><ele>50.0</ele><time>2026-04-19T08:21:18.713Z</time></trkpt><trkpt lat="38.1615886" lon="13.338029"><ele>50.00000000000001</ele><time>2026-04-19T08:21:21.713Z</time></trkpt><trkpt lat="38.1615256" lon="13.3380675"><ele>50.0</ele><time>2026-04-19T08:21:23.714Z</time></trkpt><trkpt lat="38.1614589" lon="13.3381274"><ele>50.00000000000001</ele><time>2026-04-19T08:21:26.714Z</time></trkpt><trkpt lat="38.1613964" lon="13.3381776"><ele>50.0</ele><time>2026-04-19T08:21:29.713Z</time></trkpt><trkpt lat="38.161343" lon="13.3382223"><ele>50.0</ele><time>2026-04-19T08:21:31.714Z</time></trkpt><trkpt lat="38.1612788" lon="13.3382689"><ele>50.0</ele><time>2026-04-19T08:21:34.713Z</time></trkpt><trkpt lat="38.1612216" lon="13.3383109"><ele>50.0</ele><time>2026-04-19T08:21:37.714Z</time></trkpt><trkpt lat="38.1611749" lon="13.3383736"><ele>50.00000000000001</ele><time>2026-04-19T08:21:40.714Z</time></trkpt><trkpt lat="38.1611181" lon="13.338416"><ele>50.0</ele><time>2026-04-19T08:21:43.713Z</time></trkpt><trkpt lat="38.1610562" lon="13.3384984"><ele>50.00000000000001</ele><time>2026-04-19T08:21:48.713Z</time></trkpt><trkpt lat="38.1610304" lon="13.3385991"><ele>50.0</ele><time>2026-04-19T08:21:53.714Z</time></trkpt><trkpt lat="38.1610419" lon="13.3386787"><ele>50.0</ele><time>2026-04-19T08:21:55.713Z</time></trkpt><trkpt lat="38.1610743" lon="13.338788"><ele>50.0</ele><time>2026-04-19T08:21:58.713Z</time></trkpt><trkpt lat="38.1610883" lon="13.3388789"><ele>50.00000000000001</ele><time>2026-04-19T08:22:01.714Z</time></trkpt><trkpt lat="38.1610779" lon="13.3389707"><ele>50.0</ele><time>2026-04-19T08:22:04.714Z</time></trkpt><trkpt lat="38.1610402" lon="13.3390563"><ele>50.142857142857146</ele><time>2026-04-19T08:22:09.713Z</time></trkpt><trkpt lat="38.1609919" lon="13.339124"><ele>50.285714285714285</ele><time>2026-04-19T08:22:13.714Z</time></trkpt><trkpt lat="38.1609209" lon="13.3391544"><ele>50.42857142857143</ele><time>2026-04-19T08:22:16.713Z</time></trkpt><trkpt lat="38.1608532" lon="13.3391743"><ele>50.57142857142857</ele><time>2026-04-19T08:22:19.713Z</time></trkpt><trkpt lat="38.1607921" lon="13.3391959"><ele>50.714285714285715</ele><time>2026-04-19T08:22:21.713Z</time></trkpt><trkpt lat="38.1607264" lon="13.3392317"><ele>50.85714285714286</ele><time>2026-04-19T08:22:23.714Z</time></trkpt><trkpt lat="38.1606499" lon="13.339283"><ele>51.0</ele><time>2026-04-19T08:22:26.713Z</time></trkpt><trkpt lat="38.1605954" lon="13.3393284"><ele>50.666666666666664</ele><time>2026-04-19T08:22:29.714Z</time></trkpt><trkpt lat="38.1605312" lon="13.3393651"><ele>50.33333333333333</ele><time>2026-04-19T08:22:32.714Z</time></trkpt><trkpt lat="38.1604535" lon="13.3394049"><ele>50.0</ele><time>2026-04-19T08:22:36.713Z</time></trkpt><trkpt lat="38.1603654" lon="13.3394463"><ele>49.666666666666664</ele><time>2026-04-19T08:22:39.713Z</time></trkpt><trkpt lat="38.1602748" lon="13.3394667"><ele>49.33333333333333</ele><time>2026-04-19T08:22:42.714Z</time></trkpt><trkpt lat="38.16021" lon="13.3395102"><ele>49.0</ele><time>2026-04-19T08:22:44.714Z</time></trkpt><trkpt lat="38.1601429" lon="13.3395514"><ele>48.99999999999999</ele><time>2026-04-19T08:22:46.713Z</time></trkpt><trkpt lat="38.1600765" lon="13.3396066"><ele>49.0</ele><time>2026-04-19T08:22:48.713Z</time></trkpt><trkpt lat="38.1600124" lon="13.3396427"><ele>49.0</ele><time>2026-04-19T08:22:50.713Z</time></trkpt><trkpt lat="38.1599395" lon="13.3397141"><ele>49.0</ele><time>2026-04-19T08:22:53.714Z</time></trkpt><trkpt lat="38.1598832" lon="13.3397602"><ele>48.99999999999999</ele><time>2026-04-19T08:22:55.713Z</time></trkpt><trkpt lat="38.1598065" lon="13.3398028"><ele>49.0</ele><time>2026-04-19T08:22:58.713Z</time></trkpt><trkpt lat="38.159718" lon="13.3398514"><ele>49.49999999999999</ele><time>2026-04-19T08:23:01.713Z</time></trkpt><trkpt lat="38.1596535" lon="13.3398847"><ele>50.0</ele><time>2026-04-19T08:23:03.714Z</time></trkpt><trkpt lat="38.1595931" lon="13.3399456"><ele>50.5</ele><time>2026-04-19T08:23:05.713Z</time></trkpt><trkpt lat="38.1595396" lon="13.3399921"><ele>51.0</ele><time>2026-04-19T08:23:07.714Z</time></trkpt><trkpt lat="38.1594543" lon="13.3400338"><ele>51.49999999999999</ele><time>2026-04-19T08:23:10.714Z</time></trkpt><trkpt lat="38.1593693" lon="13.3400811"><ele>52.0</ele><time>2026-04-19T08:23:13.714Z</time></trkpt><trkpt lat="38.1593013" lon="13.3401208"><ele>51.99999999999999</ele><time>2026-04-19T08:23:15.713Z</time></trkpt><trkpt lat="38.159243" lon="13.3401603"><ele>52.0</ele><time>2026-04-19T08:23:17.713Z</time></trkpt><trkpt lat="38.1591907" lon="13.3402089"><ele>52.0</ele><time>2026-04-19T08:23:19.714Z</time></trkpt><trkpt lat="38.1591362" lon="13.3402494"><ele>52.0</ele><time>2026-04-19T08:23:21.714Z</time></trkpt><trkpt lat="38.1590483" lon="13.3402882"><ele>51.99999999999999</ele><time>2026-04-19T08:23:24.714Z</time></trkpt><trkpt lat="38.1589552" lon="13.3403106"><ele>52.0</ele><time>2026-04-19T08:23:27.713Z</time></trkpt><trkpt lat="38.1588713" lon="13.3403731"><ele>51.42857142857142</ele><time>2026-04-19T08:23:30.714Z</time></trkpt><trkpt lat="38.1588117" lon="13.3404162"><ele>50.85714285714286</ele><time>2026-04-19T08:23:32.714Z</time></trkpt><trkpt lat="38.158754" lon="13.3404533"><ele>50.285714285714285</ele><time>2026-04-19T08:23:34.714Z</time></trkpt><trkpt lat="38.1586912" lon="13.3404977"><ele>49.71428571428571</ele><time>2026-04-19T08:23:36.714Z</time></trkpt><trkpt lat="38.158633" lon="13.3405299"><ele>49.14285714285714</ele><time>2026-04-19T08:23:38.714Z</time></trkpt><trkpt lat="38.1585748" lon="13.3405689"><ele>48.57142857142857</ele><time>2026-04-19T08:23:40.713Z</time></trkpt><trkpt lat="38.1584874" lon="13.3405885"><ele>48.0</ele><time>2026-04-19T08:23:43.713Z</time></trkpt><trkpt lat="38.1584067" lon="13.3406352"><ele>47.857142857142854</ele><time>2026-04-19T08:23:46.713Z</time></trkpt><trkpt lat="38.1583453" lon="13.3406699"><ele>47.714285714285715</ele><time>2026-04-19T08:23:48.713Z</time></trkpt><trkpt lat="38.1582827" lon="13.3406976"><ele>47.57142857142857</ele><time>2026-04-19T08:23:50.713Z</time></trkpt><trkpt lat="38.158221" lon="13.3407437"><ele>47.42857142857143</ele><time>2026-04-19T08:23:52.714Z</time></trkpt><trkpt lat="38.1581472" lon="13.3407979"><ele>47.285714285714285</ele><time>2026-04-19T08:23:55.714Z</time></trkpt><trkpt lat="38.1580758" lon="13.3408344"><ele>47.14285714285714</ele><time>2026-04-19T08:23:58.713Z</time></trkpt><trkpt lat="38.1580119" lon="13.3408577"><ele>47.0</ele><time>2026-04-19T08:24:02.714Z</time></trkpt><trkpt lat="38.1579469" lon="13.3408807"><ele>47.83333333333333</ele><time>2026-04-19T08:24:06.714Z</time></trkpt><trkpt lat="38.1578679" lon="13.3409052"><ele>48.666666666666664</ele><time>2026-04-19T08:24:10.713Z</time></trkpt><trkpt lat="38.1577939" lon="13.3409302"><ele>49.5</ele><time>2026-04-19T08:24:13.713Z</time></trkpt><trkpt lat="38.1577283" lon="13.3409772"><ele>50.33333333333333</ele><time>2026-04-19T08:24:17.713Z</time></trkpt><trkpt lat="38.1576644" lon="13.3410181"><ele>51.166666666666664</ele><time>2026-04-19T08:24:20.714Z</time></trkpt><trkpt lat="38.1575908" lon="13.3410642"><ele>52.0</ele><time>2026-04-19T08:24:23.714Z</time></trkpt><trkpt lat="38.1575264" lon="13.3410016"><ele>51.99999999999999</ele><time>2026-04-19T08:24:26.713Z</time></trkpt><trkpt lat="38.1575012" lon="13.340899"><ele>52.0</ele><time>2026-04-19T08:24:29.714Z</time></trkpt><trkpt lat="38.1574967" lon="13.3408145"><ele>52.0</ele><time>2026-04-19T08:24:31.713Z</time></trkpt><trkpt lat="38.1574747" lon="13.3407139"><ele>52.0</ele><time>2026-04-19T08:24:34.713Z</time></trkpt><trkpt lat="38.1574454" lon="13.3406057"><ele>51.99999999999999</ele><time>2026-04-19T08:24:37.714Z</time></trkpt><trkpt lat="38.1574201" lon="13.3405238"><ele>52.0</ele><time>2026-04-19T08:24:39.713Z</time></trkpt><trkpt lat="38.1573882" lon="13.340445"><ele>51.666666666666664</ele><time>2026-04-19T08:24:41.714Z</time></trkpt><trkpt lat="38.1573613" lon="13.3403651"><ele>51.33333333333333</ele><time>2026-04-19T08:24:43.714Z</time></trkpt><trkpt lat="38.1573306" lon="13.3402891"><ele>51.0</ele><time>2026-04-19T08:24:45.714Z</time></trkpt><trkpt lat="38.1573025" lon="13.3402063"><ele>50.66666666666667</ele><time>2026-04-19T08:24:47.714Z</time></trkpt><trkpt lat="38.1572694" lon="13.3401006"><ele>50.333333333333336</ele><time>2026-04-19T08:24:50.713Z</time></trkpt><trkpt lat="38.1572354" lon="13.3399942"><ele>50.0</ele><time>2026-04-19T08:24:53.714Z</time></trkpt><trkpt lat="38.1571966" lon="13.3398938"><ele>50.00000000000001</ele><time>2026-04-19T08:24:56.714Z</time></trkpt><trkpt lat="38.1571573" lon="13.3398005"><ele>50.0</ele><time>2026-04-19T08:24:59.713Z</time></trkpt><trkpt lat="38.157107" lon="13.3397015"><ele>50.0</ele><time>2026-04-19T08:25:02.714Z</time></trkpt><trkpt lat="38.1570547" lon="13.3396531"><ele>50.0</ele><time>2026-04-19T08:25:04.713Z</time></trkpt><trkpt lat="38.1569935" lon="13.3396153"><ele>50.0</ele><time>2026-04-19T08:25:06.713Z</time></trkpt><trkpt lat="38.1569368" lon="13.3395541"><ele>50.00000000000001</ele><time>2026-04-19T08:25:09.713Z</time></trkpt><trkpt lat="38.1568881" lon="13.3395014"><ele>50.0</ele><time>2026-04-19T08:25:12.713Z</time></trkpt><trkpt lat="38.1568226" lon="13.3394298"><ele>49.16666666666667</ele><time>2026-04-19T08:25:16.714Z</time></trkpt><trkpt lat="38.1567503" lon="13.3393933"><ele>48.333333333333336</ele><time>2026-04-19T08:25:19.713Z</time></trkpt><trkpt lat="38.1566687" lon="13.3394113"><ele>47.5</ele><time>2026-04-19T08:25:22.714Z</time></trkpt><trkpt lat="38.1565893" lon="13.3394749"><ele>46.66666666666667</ele><time>2026-04-19T08:25:25.713Z</time></trkpt><trkpt lat="38.1565267" lon="13.3395115"><ele>45.833333333333336</ele><time>2026-04-19T08:25:27.713Z</time></trkpt><trkpt lat="38.1564648" lon="13.3395503"><ele>45.0</ele><time>2026-04-19T08:25:29.713Z</time></trkpt><trkpt lat="38.1564084" lon="13.3395896"><ele>45.0</ele><time>2026-04-19T08:25:31.714Z</time></trkpt><trkpt lat="38.1563265" lon="13.3396296"><ele>45.0</ele><time>2026-04-19T08:25:34.713Z</time></trkpt><trkpt lat="38.1562642" lon="13.3396455"><ele>45.0</ele><time>2026-04-19T08:25:36.714Z</time></trkpt><trkpt lat="38.1561894" lon="13.3396801"><ele>45.0</ele><time>2026-04-19T08:25:39.714Z</time></trkpt><trkpt lat="38.1561032" lon="13.3397288"><ele>45.0</ele><time>2026-04-19T08:25:42.713Z</time></trkpt><trkpt lat="38.1560329" lon="13.3397803"><ele>45.0</ele><time>2026-04-19T08:25:45.714Z</time></trkpt><trkpt lat="38.1559475" lon="13.3398188"><ele>45.0</ele><time>2026-04-19T08:25:48.713Z</time></trkpt><trkpt lat="38.1558682" lon="13.3398554"><ele>45.0</ele><time>2026-04-19T08:25:51.714Z</time></trkpt><trkpt lat="38.1557942" lon="13.3398445"><ele>45.0</ele><time>2026-04-19T08:25:54.713Z</time></trkpt><trkpt lat="38.1557726" lon="13.3397647"><ele>45.0</ele><time>2026-04-19T08:25:57.713Z</time></trkpt><trkpt lat="38.1557547" lon="13.3396788"><ele>45.0</ele><time>2026-04-19T08:26:00.713Z</time></trkpt><trkpt lat="38.1557349" lon="13.3395836"><ele>45.0</ele><time>2026-04-19T08:26:03.714Z</time></trkpt><trkpt lat="38.1557154" lon="13.3394929"><ele>45.0</ele><time>2026-04-19T08:26:06.714Z</time></trkpt><trkpt lat="38.1556865" lon="13.3393817"><ele>44.5</ele><time>2026-04-19T08:26:09.714Z</time></trkpt><trkpt lat="38.1556656" lon="13.3392751"><ele>44.0</ele><time>2026-04-19T08:26:12.713Z</time></trkpt><trkpt lat="38.155634" lon="13.3391858"><ele>43.5</ele><time>2026-04-19T08:26:15.713Z</time></trkpt><trkpt lat="38.1555603" lon="13.3391508"><ele>43.0</ele><time>2026-04-19T08:26:18.713Z</time></trkpt><trkpt lat="38.1554325" lon="13.3391614"><ele>42.5</ele><time>2026-04-19T08:26:34.713Z</time></trkpt><trkpt lat="38.1553569" lon="13.3391764"><ele>42.0</ele><time>2026-04-19T08:26:37.713Z</time></trkpt><trkpt lat="38.1552955" lon="13.339154"><ele>42.0</ele><time>2026-04-19T08:26:41.713Z</time></trkpt><trkpt lat="38.1552319" lon="13.3391562"><ele>42.0</ele><time>2026-04-19T08:26:45.714Z</time></trkpt><trkpt lat="38.1551683" lon="13.3391719"><ele>42.0</ele><time>2026-04-19T08:26:49.714Z</time></trkpt><trkpt lat="38.1551044" lon="13.3391923"><ele>42.0</ele><time>2026-04-19T08:26:53.714Z</time></trkpt><trkpt lat="38.155035" lon="13.339237"><ele>42.0</ele><time>2026-04-19T08:26:56.714Z</time></trkpt><trkpt lat="38.1549515" lon="13.3392899"><ele>42.0</ele><time>2026-04-19T08:26:59.714Z</time></trkpt><trkpt lat="38.1549009" lon="13.3393454"><ele>42.0</ele><time>2026-04-19T08:27:01.713Z</time></trkpt><trkpt lat="38.1548247" lon="13.3393993"><ele>41.714285714285715</ele><time>2026-04-19T08:27:04.714Z</time></trkpt><trkpt lat="38.1547706" lon="13.3394474"><ele>41.42857142857143</ele><time>2026-04-19T08:27:06.713Z</time></trkpt><trkpt lat="38.1547124" lon="13.3395034"><ele>41.14285714285714</ele><time>2026-04-19T08:27:08.714Z</time></trkpt><trkpt lat="38.1546529" lon="13.3395501"><ele>40.85714285714286</ele><time>2026-04-19T08:27:10.714Z</time></trkpt><trkpt lat="38.1545869" lon="13.3395953"><ele>40.57142857142857</ele><time>2026-04-19T08:27:12.713Z</time></trkpt><trkpt lat="38.154524" lon="13.3396453"><ele>40.285714285714285</ele><time>2026-04-19T08:27:14.712Z</time></trkpt><trkpt lat="38.1544599" lon="13.3397064"><ele>40.0</ele><time>2026-04-19T08:27:16.713Z</time></trkpt><trkpt lat="38.1543918" lon="13.3397652"><ele>40.0</ele><time>2026-04-19T08:27:18.713Z</time></trkpt><trkpt lat="38.1543326" lon="13.3398194"><ele>40.0</ele><time>2026-04-19T08:27:20.713Z</time></trkpt><trkpt lat="38.1542614" lon="13.3398679"><ele>40.0</ele><time>2026-04-19T08:27:22.712Z</time></trkpt><trkpt lat="38.1541964" lon="13.3399064"><ele>40.0</ele><time>2026-04-19T08:27:24.712Z</time></trkpt><trkpt lat="38.1541373" lon="13.339953"><ele>40.0</ele><time>2026-04-19T08:27:26.713Z</time></trkpt><trkpt lat="38.1540538" lon="13.3400092"><ele>40.0</ele><time>2026-04-19T08:27:29.712Z</time></trkpt><trkpt lat="38.1539982" lon="13.3400524"><ele>40.14285714285714</ele><time>2026-04-19T08:27:31.713Z</time></trkpt><trkpt lat="38.1539423" lon="13.3400894"><ele>40.285714285714285</ele><time>2026-04-19T08:27:33.712Z</time></trkpt><trkpt lat="38.1538777" lon="13.3401245"><ele>40.42857142857143</ele><time>2026-04-19T08:27:35.713Z</time></trkpt><trkpt lat="38.1538173" lon="13.3401756"><ele>40.57142857142857</ele><time>2026-04-19T08:27:37.712Z</time></trkpt><trkpt lat="38.1537588" lon="13.3402233"><ele>40.714285714285715</ele><time>2026-04-19T08:27:39.712Z</time></trkpt><trkpt lat="38.1536884" lon="13.3402811"><ele>40.857142857142854</ele><time>2026-04-19T08:27:42.713Z</time></trkpt><trkpt lat="38.153609" lon="13.3402545"><ele>41.0</ele><time>2026-04-19T08:27:47.713Z</time></trkpt><trkpt lat="38.1535451" lon="13.3402292"><ele>40.99999999999999</ele><time>2026-04-19T08:27:50.712Z</time></trkpt><trkpt lat="38.153469" lon="13.3402146"><ele>41.0</ele><time>2026-04-19T08:27:53.713Z</time></trkpt><trkpt lat="38.1534164" lon="13.3402734"><ele>41.0</ele><time>2026-04-19T08:27:56.712Z</time></trkpt><trkpt lat="38.1533509" lon="13.340313"><ele>41.0</ele><time>2026-04-19T08:28:00.712Z</time></trkpt><trkpt lat="38.1532747" lon="13.3403445"><ele>41.0</ele><time>2026-04-19T08:28:03.712Z</time></trkpt><trkpt lat="38.153224" lon="13.340396"><ele>40.99999999999999</ele><time>2026-04-19T08:28:06.712Z</time></trkpt><trkpt lat="38.1531688" lon="13.3404369"><ele>41.0</ele><time>2026-04-19T08:28:09.712Z</time></trkpt><trkpt lat="38.1531092" lon="13.3404741"><ele>41.33333333333333</ele><time>2026-04-19T08:28:12.713Z</time></trkpt><trkpt lat="38.1530448" lon="13.340526"><ele>41.666666666666664</ele><time>2026-04-19T08:28:15.712Z</time></trkpt><trkpt lat="38.1529585" lon="13.3405855"><ele>42.0</ele><time>2026-04-19T08:28:18.713Z</time></trkpt><trkpt lat="38.1528855" lon="13.3406441"><ele>42.333333333333336</ele><time>2026-04-19T08:28:21.712Z</time></trkpt><trkpt lat="38.1528113" lon="13.3406973"><ele>42.66666666666667</ele><time>2026-04-19T08:28:24.713Z</time></trkpt><trkpt lat="38.1527372" lon="13.340759"><ele>43.0</ele><time>2026-04-19T08:28:27.713Z</time></trkpt><trkpt lat="38.1526724" lon="13.3408139"><ele>42.714285714285715</ele><time>2026-04-19T08:28:30.712Z</time></trkpt><trkpt lat="38.1525949" lon="13.3408704"><ele>42.42857142857143</ele><time>2026-04-19T08:28:33.712Z</time></trkpt><trkpt lat="38.1525242" lon="13.3409073"><ele>42.14285714285714</ele><time>2026-04-19T08:28:36.712Z</time></trkpt><trkpt lat="38.1524642" lon="13.3409353"><ele>41.85714285714286</ele><time>2026-04-19T08:28:38.712Z</time></trkpt><trkpt lat="38.1524053" lon="13.3409818"><ele>41.57142857142857</ele><time>2026-04-19T08:28:41.713Z</time></trkpt><trkpt lat="38.1523268" lon="13.3410204"><ele>41.285714285714285</ele><time>2026-04-19T08:28:44.713Z</time></trkpt><trkpt lat="38.1522704" lon="13.3410632"><ele>41.0</ele><time>2026-04-19T08:28:46.713Z</time></trkpt><trkpt lat="38.1522089" lon="13.3411037"><ele>41.0</ele><time>2026-04-19T08:28:48.713Z</time></trkpt><trkpt lat="38.1521198" lon="13.341162"><ele>41.0</ele><time>2026-04-19T08:28:51.713Z</time></trkpt><trkpt lat="38.1520388" lon="13.341203"><ele>41.0</ele><time>2026-04-19T08:28:54.712Z</time></trkpt><trkpt lat="38.1519747" lon="13.3412626"><ele>41.0</ele><time>2026-04-19T08:28:57.713Z</time></trkpt><trkpt lat="38.1519206" lon="13.3413085"><ele>41.0</ele><time>2026-04-19T08:28:59.712Z</time></trkpt><trkpt lat="38.1518534" lon="13.3413617"><ele>41.0</ele><time>2026-04-19T08:29:02.713Z</time></trkpt><trkpt lat="38.1517857" lon="13.3414099"><ele>41.0</ele><time>2026-04-19T08:29:05.712Z</time></trkpt><trkpt lat="38.1516985" lon="13.3414666"><ele>41.0</ele><time>2026-04-19T08:29:08.713Z</time></trkpt><trkpt lat="38.1516225" lon="13.3415062"><ele>41.0</ele><time>2026-04-19T08:29:11.712Z</time></trkpt><trkpt lat="38.1515709" lon="13.3415555"><ele>41.0</ele><time>2026-04-19T08:29:13.713Z</time></trkpt><trkpt lat="38.1514947" lon="13.3416148"><ele>41.0</ele><time>2026-04-19T08:29:16.712Z</time></trkpt><trkpt lat="38.1514188" lon="13.3416535"><ele>41.0</ele><time>2026-04-19T08:29:19.712Z</time></trkpt><trkpt lat="38.1513426" lon="13.3416914"><ele>40.42857142857142</ele><time>2026-04-19T08:29:23.712Z</time></trkpt><trkpt lat="38.1512879" lon="13.3417444"><ele>39.857142857142854</ele><time>2026-04-19T08:29:26.713Z</time></trkpt><trkpt lat="38.1512343" lon="13.3417938"><ele>39.285714285714285</ele><time>2026-04-19T08:29:29.713Z</time></trkpt><trkpt lat="38.1511748" lon="13.341822"><ele>38.71428571428571</ele><time>2026-04-19T08:29:32.712Z</time></trkpt><trkpt lat="38.1511182" lon="13.3418586"><ele>38.14285714285714</ele><time>2026-04-19T08:29:36.713Z</time></trkpt><trkpt lat="38.1510638" lon="13.3419029"><ele>37.57142857142857</ele><time>2026-04-19T08:29:39.712Z</time></trkpt><trkpt lat="38.1510025" lon="13.3419251"><ele>37.0</ele><time>2026-04-19T08:29:41.712Z</time></trkpt><trkpt lat="38.1509225" lon="13.341982"><ele>37.0</ele><time>2026-04-19T08:29:44.712Z</time></trkpt><trkpt lat="38.1508554" lon="13.3420147"><ele>37.0</ele><time>2026-04-19T08:29:47.713Z</time></trkpt><trkpt lat="38.150792" lon="13.3420545"><ele>37.0</ele><time>2026-04-19T08:29:50.712Z</time></trkpt><trkpt lat="38.1507194" lon="13.3420833"><ele>37.0</ele><time>2026-04-19T08:29:54.713Z</time></trkpt><trkpt lat="38.1506704" lon="13.3421623"><ele>37.0</ele><time>2026-04-19T08:29:57.712Z</time></trkpt><trkpt lat="38.1506551" lon="13.3422418"><ele>37.0</ele><time>2026-04-19T08:30:00.712Z</time></trkpt><trkpt lat="38.1507171" lon="13.3422623"><ele>37.0</ele><time>2026-04-19T08:30:04.712Z</time></trkpt><trkpt lat="38.1506849" lon="13.3421932"><ele>36.833333333333336</ele><time>2026-04-19T08:30:08.713Z</time></trkpt><trkpt lat="38.1506321" lon="13.3422716"><ele>36.66666666666667</ele><time>2026-04-19T08:30:12.713Z</time></trkpt><trkpt lat="38.1505778" lon="13.3423129"><ele>36.5</ele><time>2026-04-19T08:30:15.712Z</time></trkpt><trkpt lat="38.1504985" lon="13.3423397"><ele>36.333333333333336</ele><time>2026-04-19T08:30:18.713Z</time></trkpt><trkpt lat="38.1504244" lon="13.3423616"><ele>36.166666666666664</ele><time>2026-04-19T08:30:21.712Z</time></trkpt><trkpt lat="38.1503698" lon="13.3424021"><ele>36.0</ele><time>2026-04-19T08:30:23.712Z</time></trkpt><trkpt lat="38.1502865" lon="13.3424462"><ele>36.0</ele><time>2026-04-19T08:30:26.712Z</time></trkpt><trkpt lat="38.1501958" lon="13.3424754"><ele>36.0</ele><time>2026-04-19T08:30:29.712Z</time></trkpt><trkpt lat="38.1501276" lon="13.3425089"><ele>36.0</ele><time>2026-04-19T08:30:32.712Z</time></trkpt><trkpt lat="38.1500488" lon="13.3425174"><ele>36.0</ele><time>2026-04-19T08:30:35.713Z</time></trkpt><trkpt lat="38.1499853" lon="13.3424981"><ele>36.0</ele><time>2026-04-19T08:30:38.712Z</time></trkpt><trkpt lat="38.149922" lon="13.3425152"><ele>36.0</ele><time>2026-04-19T08:30:41.712Z</time></trkpt><trkpt lat="38.1498508" lon="13.3425441"><ele>36.333333333333336</ele><time>2026-04-19T08:30:43.713Z</time></trkpt><trkpt lat="38.1497762" lon="13.3425544"><ele>36.666666666666664</ele><time>2026-04-19T08:30:45.712Z</time></trkpt><trkpt lat="38.1496916" lon="13.3425872"><ele>37.0</ele><time>2026-04-19T08:30:48.712Z</time></trkpt><trkpt lat="38.1496241" lon="13.3426444"><ele>37.33333333333333</ele><time>2026-04-19T08:30:51.713Z</time></trkpt><trkpt lat="38.14956" lon="13.3426747"><ele>37.666666666666664</ele><time>2026-04-19T08:30:53.712Z</time></trkpt><trkpt lat="38.1494987" lon="13.3427141"><ele>38.0</ele><time>2026-04-19T08:30:55.712Z</time></trkpt><trkpt lat="38.1494052" lon="13.3427549"><ele>38.0</ele><time>2026-04-19T08:30:58.713Z</time></trkpt><trkpt lat="38.1493149" lon="13.342806"><ele>38.0</ele><time>2026-04-19T08:31:01.713Z</time></trkpt><trkpt lat="38.1492545" lon="13.3428359"><ele>38.0</ele><time>2026-04-19T08:31:03.713Z</time></trkpt><trkpt lat="38.1491934" lon="13.3428672"><ele>38.0</ele><time>2026-04-19T08:31:05.713Z</time></trkpt><trkpt lat="38.1491122" lon="13.3429171"><ele>38.0</ele><time>2026-04-19T08:31:08.713Z</time></trkpt><trkpt lat="38.1490387" lon="13.3429743"><ele>38.0</ele><time>2026-04-19T08:31:11.712Z</time></trkpt><trkpt lat="38.1489561" lon="13.3430201"><ele>37.857142857142854</ele><time>2026-04-19T08:31:14.712Z</time></trkpt><trkpt lat="38.1488829" lon="13.3430633"><ele>37.714285714285715</ele><time>2026-04-19T08:31:17.713Z</time></trkpt><trkpt lat="38.1488214" lon="13.3430874"><ele>37.57142857142857</ele><time>2026-04-19T08:31:20.713Z</time></trkpt><trkpt lat="38.1487528" lon="13.3431207"><ele>37.42857142857143</ele><time>2026-04-19T08:31:23.713Z</time></trkpt><trkpt lat="38.1486927" lon="13.3431447"><ele>37.285714285714285</ele><time>2026-04-19T08:31:26.713Z</time></trkpt><trkpt lat="38.1486605" lon="13.343067"><ele>37.142857142857146</ele><time>2026-04-19T08:31:42.713Z</time></trkpt><trkpt lat="38.1485833" lon="13.3431055"><ele>37.0</ele><time>2026-04-19T08:31:58.712Z</time></trkpt><trkpt lat="38.1485176" lon="13.3431449"><ele>37.0</ele><time>2026-04-19T08:32:01.712Z</time></trkpt><trkpt lat="38.1484437" lon="13.3431967"><ele>37.0</ele><time>2026-04-19T08:32:04.712Z</time></trkpt><trkpt lat="38.1483819" lon="13.3432211"><ele>37.0</ele><time>2026-04-19T08:32:06.713Z</time></trkpt><trkpt lat="38.1483082" lon="13.3432311"><ele>37.0</ele><time>2026-04-19T08:32:09.713Z</time></trkpt><trkpt lat="38.1482319" lon="13.3432708"><ele>37.0</ele><time>2026-04-19T08:32:12.713Z</time></trkpt><trkpt lat="38.1481571" lon="13.3432976"><ele>37.0</ele><time>2026-04-19T08:32:15.712Z</time></trkpt><trkpt lat="38.1480708" lon="13.3433283"><ele>37.333333333333336</ele><time>2026-04-19T08:32:18.713Z</time></trkpt><trkpt lat="38.1480074" lon="13.3433475"><ele>37.66666666666667</ele><time>2026-04-19T08:32:20.712Z</time></trkpt><trkpt lat="38.147918" lon="13.3433781"><ele>38.0</ele><time>2026-04-19T08:32:23.713Z</time></trkpt><trkpt lat="38.1478569" lon="13.3433993"><ele>38.333333333333336</ele><time>2026-04-19T08:32:25.713Z</time></trkpt><trkpt lat="38.1477591" lon="13.3434386"><ele>38.666666666666664</ele><time>2026-04-19T08:32:28.713Z</time></trkpt><trkpt lat="38.1476911" lon="13.3434639"><ele>39.0</ele><time>2026-04-19T08:32:30.712Z</time></trkpt><trkpt lat="38.1476026" lon="13.3435107"><ele>39.0</ele><time>2026-04-19T08:32:33.712Z</time></trkpt><trkpt lat="38.1475405" lon="13.3435388"><ele>39.0</ele><time>2026-04-19T08:32:35.712Z</time></trkpt><trkpt lat="38.1474639" lon="13.3435609"><ele>39.0</ele><time>2026-04-19T08:32:37.713Z</time></trkpt><trkpt lat="38.1473974" lon="13.3435956"><ele>39.0</ele><time>2026-04-19T08:32:39.712Z</time></trkpt><trkpt lat="38.1473091" lon="13.3436298"><ele>39.0</ele><time>2026-04-19T08:32:41.712Z</time></trkpt><trkpt lat="38.1472501" lon="13.3436601"><ele>39.0</ele><time>2026-04-19T08:32:43.713Z</time></trkpt><trkpt lat="38.1471809" lon="13.3436806"><ele>39.0</ele><time>2026-04-19T08:32:45.712Z</time></trkpt><trkpt lat="38.1470854" lon="13.3436919"><ele>38.666666666666664</ele><time>2026-04-19T08:32:47.713Z</time></trkpt><trkpt lat="38.1470112" lon="13.3436702"><ele>38.333333333333336</ele><time>2026-04-19T08:32:49.713Z</time></trkpt><trkpt lat="38.1469425" lon="13.3436578"><ele>38.0</ele><time>2026-04-19T08:32:51.713Z</time></trkpt><trkpt lat="38.1468683" lon="13.3436421"><ele>37.66666666666667</ele><time>2026-04-19T08:32:53.712Z</time></trkpt><trkpt lat="38.1468035" lon="13.3436238"><ele>37.333333333333336</ele><time>2026-04-19T08:32:55.713Z</time></trkpt><trkpt lat="38.1467334" lon="13.3436011"><ele>37.0</ele><time>2026-04-19T08:32:57.712Z</time></trkpt><trkpt lat="38.1466438" lon="13.343566"><ele>37.0</ele><time>2026-04-19T08:33:00.712Z</time></trkpt><trkpt lat="38.1465921" lon="13.3435172"><ele>37.0</ele><time>2026-04-19T08:33:02.713Z</time></trkpt><trkpt lat="38.1465467" lon="13.3434527"><ele>37.0</ele><time>2026-04-19T08:33:04.713Z</time></trkpt><trkpt lat="38.1465052" lon="13.3433866"><ele>37.0</ele><time>2026-04-19T08:33:06.712Z</time></trkpt><trkpt lat="38.1464654" lon="13.3433237"><ele>37.0</ele><time>2026-04-19T08:33:08.713Z</time></trkpt><trkpt lat="38.1464222" lon="13.3432324"><ele>37.0</ele><time>2026-04-19T08:33:11.712Z</time></trkpt><trkpt lat="38.1463738" lon="13.3431486"><ele>37.0</ele><time>2026-04-19T08:33:13.712Z</time></trkpt><trkpt lat="38.1463238" lon="13.3430619"><ele>38.5</ele><time>2026-04-19T08:33:15.712Z</time></trkpt><trkpt lat="38.1462642" lon="13.3430177"><ele>40.0</ele><time>2026-04-19T08:33:17.712Z</time></trkpt><trkpt lat="38.146202" lon="13.342956"><ele>41.5</ele><time>2026-04-19T08:33:19.712Z</time></trkpt><trkpt lat="38.1461397" lon="13.3428956"><ele>43.0</ele><time>2026-04-19T08:33:22.712Z</time></trkpt><trkpt lat="38.1460775" lon="13.3428035"><ele>44.5</ele><time>2026-04-19T08:33:25.713Z</time></trkpt><trkpt lat="38.1460247" lon="13.3427202"><ele>46.0</ele><time>2026-04-19T08:33:27.713Z</time></trkpt><trkpt lat="38.1459719" lon="13.3426373"><ele>46.0</ele><time>2026-04-19T08:33:29.712Z</time></trkpt><trkpt lat="38.1459515" lon="13.3425406"><ele>46.0</ele><time>2026-04-19T08:33:31.712Z</time></trkpt><trkpt lat="38.145946" lon="13.3424461"><ele>46.0</ele><time>2026-04-19T08:33:33.713Z</time></trkpt><trkpt lat="38.145945" lon="13.3423426"><ele>46.0</ele><time>2026-04-19T08:33:35.712Z</time></trkpt><trkpt lat="38.145941" lon="13.342239"><ele>46.0</ele><time>2026-04-19T08:33:37.712Z</time></trkpt><trkpt lat="38.1459516" lon="13.3421566"><ele>46.0</ele><time>2026-04-19T08:33:39.712Z</time></trkpt><trkpt lat="38.1459634" lon="13.3420386"><ele>45.0</ele><time>2026-04-19T08:33:42.712Z</time></trkpt><trkpt lat="38.1459329" lon="13.3419479"><ele>44.0</ele><time>2026-04-19T08:33:44.712Z</time></trkpt><trkpt lat="38.1458909" lon="13.3418656"><ele>43.0</ele><time>2026-04-19T08:33:46.713Z</time></trkpt><trkpt lat="38.145811" lon="13.3417795"><ele>42.0</ele><time>2026-04-19T08:33:48.713Z</time></trkpt><trkpt lat="38.1457364" lon="13.3417271"><ele>41.0</ele><time>2026-04-19T08:33:50.712Z</time></trkpt><trkpt lat="38.1456592" lon="13.3417156"><ele>40.0</ele><time>2026-04-19T08:33:52.712Z</time></trkpt><trkpt lat="38.1455906" lon="13.341728"><ele>40.0</ele><time>2026-04-19T08:33:53.713Z</time></trkpt><trkpt lat="38.1455244" lon="13.3417036"><ele>40.0</ele><time>2026-04-19T08:33:54.713Z</time></trkpt><trkpt lat="38.1454112" lon="13.3416661"><ele>40.0</ele><time>2026-04-19T08:33:56.713Z</time></trkpt><trkpt lat="38.1453303" lon="13.3415503"><ele>40.0</ele><time>2026-04-19T08:33:58.713Z</time></trkpt><trkpt lat="38.1452869" lon="13.3414894"><ele>40.0</ele><time>2026-04-19T08:33:59.712Z</time></trkpt><trkpt lat="38.1452274" lon="13.3413985"><ele>39.6</ele><time>2026-04-19T08:34:01.712Z</time></trkpt><trkpt lat="38.1451643" lon="13.3413107"><ele>39.2</ele><time>2026-04-19T08:34:03.713Z</time></trkpt><trkpt lat="38.1450911" lon="13.3412119"><ele>38.8</ele><time>2026-04-19T08:34:05.713Z</time></trkpt><trkpt lat="38.1450048" lon="13.3411224"><ele>38.4</ele><time>2026-04-19T08:34:07.713Z</time></trkpt><trkpt lat="38.1449148" lon="13.3410432"><ele>38.0</ele><time>2026-04-19T08:34:09.712Z</time></trkpt><trkpt lat="38.1448343" lon="13.3409518"><ele>39.0</ele><time>2026-04-19T08:34:11.712Z</time></trkpt><trkpt lat="38.1447534" lon="13.3408655"><ele>40.0</ele><time>2026-04-19T08:34:13.712Z</time></trkpt><trkpt lat="38.144705" lon="13.3407838"><ele>41.0</ele><time>2026-04-19T08:34:15.712Z</time></trkpt><trkpt lat="38.144659" lon="13.340728"><ele>42.0</ele><time>2026-04-19T08:34:18.712Z</time></trkpt><trkpt lat="38.1445832" lon="13.3407506"><ele>43.0</ele><time>2026-04-19T08:34:21.713Z</time></trkpt><trkpt lat="38.1445442" lon="13.3408216"><ele>44.0</ele><time>2026-04-19T08:34:31.712Z</time></trkpt><trkpt lat="38.1444905" lon="13.3408661"><ele>44.0</ele><time>2026-04-19T08:34:33.713Z</time></trkpt><trkpt lat="38.1444251" lon="13.3408923"><ele>44.0</ele><time>2026-04-19T08:34:35.712Z</time></trkpt><trkpt lat="38.1443527" lon="13.3409338"><ele>44.0</ele><time>2026-04-19T08:34:37.712Z</time></trkpt><trkpt lat="38.1442912" lon="13.3409766"><ele>44.0</ele><time>2026-04-19T08:34:39.712Z</time></trkpt><trkpt lat="38.1442229" lon="13.3410113"><ele>44.0</ele><time>2026-04-19T08:34:41.712Z</time></trkpt><trkpt lat="38.1441528" lon="13.341047"><ele>44.0</ele><time>2026-04-19T08:34:43.713Z</time></trkpt><trkpt lat="38.1440653" lon="13.3411034"><ele>43.666666666666664</ele><time>2026-04-19T08:34:46.713Z</time></trkpt><trkpt lat="38.1439832" lon="13.3411445"><ele>43.33333333333333</ele><time>2026-04-19T08:34:49.713Z</time></trkpt><trkpt lat="38.1439267" lon="13.3411848"><ele>43.0</ele><time>2026-04-19T08:34:51.713Z</time></trkpt><trkpt lat="38.1438553" lon="13.3412269"><ele>42.666666666666664</ele><time>2026-04-19T08:34:53.713Z</time></trkpt><trkpt lat="38.1437854" lon="13.3412694"><ele>42.333333333333336</ele><time>2026-04-19T08:34:55.712Z</time></trkpt><trkpt lat="38.1437173" lon="13.341309"><ele>42.0</ele><time>2026-04-19T08:34:57.712Z</time></trkpt><trkpt lat="38.1436562" lon="13.3413395"><ele>42.0</ele><time>2026-04-19T08:34:59.713Z</time></trkpt><trkpt lat="38.1435957" lon="13.3413713"><ele>42.0</ele><time>2026-04-19T08:35:01.713Z</time></trkpt><trkpt lat="38.1435341" lon="13.3414066"><ele>42.0</ele><time>2026-04-19T08:35:03.713Z</time></trkpt><trkpt lat="38.1434779" lon="13.3414427"><ele>42.0</ele><time>2026-04-19T08:35:05.713Z</time></trkpt><trkpt lat="38.1434131" lon="13.3414981"><ele>42.0</ele><time>2026-04-19T08:35:08.712Z</time></trkpt><trkpt lat="38.1433102" lon="13.3415108"><ele>42.0</ele><time>2026-04-19T08:35:33.712Z</time></trkpt><trkpt lat="38.1432606" lon="13.3414588"><ele>42.0</ele><time>2026-04-19T08:35:36.713Z</time></trkpt><trkpt lat="38.143218" lon="13.341376"><ele>42.5</ele><time>2026-04-19T08:35:39.713Z</time></trkpt><trkpt lat="38.1431895" lon="13.3412918"><ele>43.0</ele><time>2026-04-19T08:35:42.712Z</time></trkpt><trkpt lat="38.143174" lon="13.3411976"><ele>43.5</ele><time>2026-04-19T08:35:45.712Z</time></trkpt><trkpt lat="38.1431383" lon="13.3410992"><ele>44.0</ele><time>2026-04-19T08:35:48.713Z</time></trkpt><trkpt lat="38.1431015" lon="13.3409878"><ele>44.5</ele><time>2026-04-19T08:35:51.712Z</time></trkpt><trkpt lat="38.1430456" lon="13.3409132"><ele>45.0</ele><time>2026-04-19T08:35:54.713Z</time></trkpt><trkpt lat="38.1430103" lon="13.3408419"><ele>45.0</ele><time>2026-04-19T08:35:57.712Z</time></trkpt><trkpt lat="38.1429892" lon="13.3407433"><ele>45.0</ele><time>2026-04-19T08:36:03.713Z</time></trkpt><trkpt lat="38.142947" lon="13.340647"><ele>45.0</ele><time>2026-04-19T08:36:07.713Z</time></trkpt><trkpt lat="38.1428977" lon="13.3405628"><ele>45.0</ele><time>2026-04-19T08:36:10.712Z</time></trkpt><trkpt lat="38.1428553" lon="13.3404912"><ele>45.0</ele><time>2026-04-19T08:36:14.713Z</time></trkpt><trkpt lat="38.1427999" lon="13.34042"><ele>45.0</ele><time>2026-04-19T08:36:17.712Z</time></trkpt><trkpt lat="38.1427671" lon="13.3403313"><ele>44.8</ele><time>2026-04-19T08:36:20.712Z</time></trkpt><trkpt lat="38.1427846" lon="13.3402168"><ele>44.6</ele><time>2026-04-19T08:36:26.712Z</time></trkpt><trkpt lat="38.1427514" lon="13.340117"><ele>44.400000000000006</ele><time>2026-04-19T08:36:30.713Z</time></trkpt><trkpt lat="38.1427111" lon="13.3399795"><ele>44.2</ele><time>2026-04-19T08:36:34.712Z</time></trkpt><trkpt lat="38.142668" lon="13.339896"><ele>44.0</ele><time>2026-04-19T08:36:37.713Z</time></trkpt><trkpt lat="38.1426282" lon="13.3397978"><ele>43.0</ele><time>2026-04-19T08:36:40.712Z</time></trkpt><trkpt lat="38.1426066" lon="13.3397033"><ele>42.0</ele><time>2026-04-19T08:36:43.712Z</time></trkpt><trkpt lat="38.1425696" lon="13.3396173"><ele>41.0</ele><time>2026-04-19T08:36:46.713Z</time></trkpt><trkpt lat="38.1425398" lon="13.3395251"><ele>40.0</ele><time>2026-04-19T08:36:49.712Z</time></trkpt><trkpt lat="38.1425152" lon="13.3394415"><ele>39.0</ele><time>2026-04-19T08:36:52.713Z</time></trkpt><trkpt lat="38.1425017" lon="13.3393325"><ele>38.0</ele><time>2026-04-19T08:36:56.713Z</time></trkpt><trkpt lat="38.1424567" lon="13.3392448"><ele>38.0</ele><time>2026-04-19T08:36:59.713Z</time></trkpt><trkpt lat="38.142422" lon="13.3391693"><ele>38.0</ele><time>2026-04-19T08:37:01.713Z</time></trkpt><trkpt lat="38.1423864" lon="13.3390801"><ele>38.0</ele><time>2026-04-19T08:37:03.712Z</time></trkpt><trkpt lat="38.1423488" lon="13.3390055"><ele>38.0</ele><time>2026-04-19T08:37:05.712Z</time></trkpt><trkpt lat="38.142299" lon="13.3389092"><ele>38.0</ele><time>2026-04-19T08:37:08.713Z</time></trkpt><trkpt lat="38.1422608" lon="13.3387994"><ele>38.0</ele><time>2026-04-19T08:37:11.712Z</time></trkpt><trkpt lat="38.1422274" lon="13.338703"><ele>38.857142857142854</ele><time>2026-04-19T08:37:14.711Z</time></trkpt><trkpt lat="38.1422104" lon="13.3385847"><ele>39.714285714285715</ele><time>2026-04-19T08:37:17.712Z</time></trkpt><trkpt lat="38.142178" lon="13.3384947"><ele>40.57142857142857</ele><time>2026-04-19T08:37:21.711Z</time></trkpt><trkpt lat="38.1421139" lon="13.3384884"><ele>41.42857142857143</ele><time>2026-04-19T08:37:24.712Z</time></trkpt><trkpt lat="38.1420445" lon="13.3385114"><ele>42.285714285714285</ele><time>2026-04-19T08:37:27.711Z</time></trkpt><trkpt lat="38.1419824" lon="13.3385407"><ele>43.142857142857146</ele><time>2026-04-19T08:37:30.711Z</time></trkpt><trkpt lat="38.1419264" lon="13.3385949"><ele>44.0</ele><time>2026-04-19T08:37:34.712Z</time></trkpt><trkpt lat="38.1418706" lon="13.3386414"><ele>44.0</ele><time>2026-04-19T08:37:38.711Z</time></trkpt><trkpt lat="38.1418138" lon="13.3385812"><ele>44.0</ele><time>2026-04-19T08:37:48.712Z</time></trkpt><trkpt lat="38.1417695" lon="13.338514"><ele>44.0</ele><time>2026-04-19T08:37:54.712Z</time></trkpt><trkpt lat="38.1417224" lon="13.3385851"><ele>44.0</ele><time>2026-04-19T08:38:11.711Z</time></trkpt><trkpt lat="38.1416684" lon="13.3386278"><ele>44.0</ele><time>2026-04-19T08:38:54.783Z</time></trkpt><trkpt lat="38.1416068" lon="13.3385925"><ele>44.0</ele><time>2026-04-19T08:39:09.646Z</time></trkpt><trkpt lat="38.141576" lon="13.3385161"><ele>44.0</ele><time>2026-04-19T08:39:20.684Z</time></trkpt><trkpt lat="38.1416366" lon="13.3384593"><ele>44.0</ele><time>2026-04-19T08:39:25.712Z</time></trkpt><trkpt lat="38.1416502" lon="13.3383808"><ele>44.0</ele><time>2026-04-19T08:40:07.761Z</time></trkpt><trkpt lat="38.1415864" lon="13.3383977"><ele>44.0</ele><time>2026-04-19T08:41:28.752Z</time></trkpt><trkpt lat="38.1415764" lon="13.3384787"><ele>44.0</ele><time>2026-04-19T08:41:43.769Z</time></trkpt><trkpt lat="38.1415755" lon="13.338585"><ele>44.0</ele><time>2026-04-19T08:41:58.712Z</time></trkpt><trkpt lat="38.1415907" lon="13.3386658"><ele>44.0</ele><time>2026-04-19T08:43:19.772Z</time></trkpt><trkpt lat="38.1416024" lon="13.3385683"><ele>44.0</ele><time>2026-04-19T08:44:19.712Z</time></trkpt><trkpt lat="38.1416993" lon="13.3385888"><ele>44.0</ele><time>2026-04-19T08:46:37.712Z</time></trkpt><trkpt lat="38.1417254" lon="13.3385027"><ele>44.0</ele><time>2026-04-19T08:47:03.554Z</time></trkpt></trkseg></trk></gpx>